<?xml version="1.0" encoding="UTF-8" standalone="no" ?>
<gpx xmlns="http://www.topografix.com/GPX/1/1" xmlns:xsi="http://www.w3.org/2001/XMLSchema-instance" xsi:schemaLocation="http://www.topografix.com/GPX/1/1 http://www.topografix.com/GPX/1/1/gpx.xsd" version="1.1" creator="VisuGPX - https://www.visugpx.com">
  <metadata>
    <name>Stevenson - Labastide Puylaurent - Chasseradès</name>
    <desc><![CDATA[Etape 3 - ASVEL Ski Montagne le 21 Mai 2012]]></desc>
  </metadata>
  <trk>
    <name><![CDATA[ACTIVE LOG082045]]></name>
    <trkseg>
      <trkpt lat="44.59389" lon="3.90434">
        <ele>1027.224</ele>
        <time>2012-05-21T08:20:44Z</time>
      </trkpt>
      <trkpt lat="44.59405" lon="3.90428">
        <ele>1027.585</ele>
        <time>2012-05-21T08:20:57Z</time>
      </trkpt>
      <trkpt lat="44.59434" lon="3.90426">
        <ele>1026.938</ele>
        <time>2012-05-21T08:21:19Z</time>
      </trkpt>
      <trkpt lat="44.59439" lon="3.90422">
        <ele>1027.61</ele>
        <time>2012-05-21T08:21:23Z</time>
      </trkpt>
      <trkpt lat="44.59442" lon="3.90416">
        <ele>1028.174</ele>
        <time>2012-05-21T08:21:28Z</time>
      </trkpt>
      <trkpt lat="44.59439" lon="3.90392">
        <ele>1027.502</ele>
        <time>2012-05-21T08:21:44Z</time>
      </trkpt>
      <trkpt lat="44.59418" lon="3.9039">
        <ele>1029.734</ele>
        <time>2012-05-21T08:22:03Z</time>
      </trkpt>
      <trkpt lat="44.59398" lon="3.90381">
        <ele>1031.336</ele>
        <time>2012-05-21T08:22:21Z</time>
      </trkpt>
      <trkpt lat="44.59396" lon="3.90357">
        <ele>1033.093</ele>
        <time>2012-05-21T08:22:36Z</time>
      </trkpt>
      <trkpt lat="44.59394" lon="3.90346">
        <ele>1035.32</ele>
        <time>2012-05-21T08:22:45Z</time>
      </trkpt>
      <trkpt lat="44.59398" lon="3.90326">
        <ele>1036.793</ele>
        <time>2012-05-21T08:23:02Z</time>
      </trkpt>
      <trkpt lat="44.59396" lon="3.90308">
        <ele>1038.89</ele>
        <time>2012-05-21T08:23:19Z</time>
      </trkpt>
      <trkpt lat="44.59397" lon="3.90283">
        <ele>1041.806</ele>
        <time>2012-05-21T08:23:38Z</time>
      </trkpt>
      <trkpt lat="44.59399" lon="3.90277">
        <ele>1042.693</ele>
        <time>2012-05-21T08:23:42Z</time>
      </trkpt>
      <trkpt lat="44.59402" lon="3.90267">
        <ele>1043.434</ele>
        <time>2012-05-21T08:23:50Z</time>
      </trkpt>
      <trkpt lat="44.59407" lon="3.9025">
        <ele>1045.627</ele>
        <time>2012-05-21T08:24:04Z</time>
      </trkpt>
      <trkpt lat="44.59393" lon="3.90247">
        <ele>1048.443</ele>
        <time>2012-05-21T08:24:21Z</time>
      </trkpt>
      <trkpt lat="44.59382" lon="3.90258">
        <ele>1049.365</ele>
        <time>2012-05-21T08:24:33Z</time>
      </trkpt>
      <trkpt lat="44.59378" lon="3.90264">
        <ele>1049.823</ele>
        <time>2012-05-21T08:24:39Z</time>
      </trkpt>
      <trkpt lat="44.59376" lon="3.90267">
        <ele>1049.702</ele>
        <time>2012-05-21T08:24:41Z</time>
      </trkpt>
      <trkpt lat="44.59365" lon="3.90276">
        <ele>1050.97</ele>
        <time>2012-05-21T08:24:52Z</time>
      </trkpt>
      <trkpt lat="44.59348" lon="3.90278">
        <ele>1052.025</ele>
        <time>2012-05-21T08:25:10Z</time>
      </trkpt>
      <trkpt lat="44.59341" lon="3.90275">
        <ele>1052.618</ele>
        <time>2012-05-21T08:25:17Z</time>
      </trkpt>
      <trkpt lat="44.59328" lon="3.90274">
        <ele>1053.93</ele>
        <time>2012-05-21T08:25:30Z</time>
      </trkpt>
      <trkpt lat="44.59324" lon="3.90272">
        <ele>1054.614</ele>
        <time>2012-05-21T08:25:34Z</time>
      </trkpt>
      <trkpt lat="44.5932" lon="3.90273">
        <ele>1054.911</ele>
        <time>2012-05-21T08:25:38Z</time>
      </trkpt>
      <trkpt lat="44.59308" lon="3.90266">
        <ele>1056.152</ele>
        <time>2012-05-21T08:25:50Z</time>
      </trkpt>
      <trkpt lat="44.59291" lon="3.90248">
        <ele>1057.575</ele>
        <time>2012-05-21T08:26:08Z</time>
      </trkpt>
      <trkpt lat="44.59277" lon="3.90232">
        <ele>1058.857</ele>
        <time>2012-05-21T08:26:24Z</time>
      </trkpt>
      <trkpt lat="44.59273" lon="3.9023">
        <ele>1058.9</ele>
        <time>2012-05-21T08:26:28Z</time>
      </trkpt>
      <trkpt lat="44.59266" lon="3.90224">
        <ele>1060.416</ele>
        <time>2012-05-21T08:26:36Z</time>
      </trkpt>
      <trkpt lat="44.59261" lon="3.90223">
        <ele>1060.115</ele>
        <time>2012-05-21T08:26:39Z</time>
      </trkpt>
      <trkpt lat="44.59255" lon="3.9022">
        <ele>1060.725</ele>
        <time>2012-05-21T08:26:44Z</time>
      </trkpt>
      <trkpt lat="44.59253" lon="3.90218">
        <ele>1060.638</ele>
        <time>2012-05-21T08:26:46Z</time>
      </trkpt>
      <trkpt lat="44.59248" lon="3.90215">
        <ele>1061.295</ele>
        <time>2012-05-21T08:26:50Z</time>
      </trkpt>
      <trkpt lat="44.59246" lon="3.90214">
        <ele>1061.58</ele>
        <time>2012-05-21T08:26:52Z</time>
      </trkpt>
      <trkpt lat="44.5924" lon="3.9021">
        <ele>1062.434</ele>
        <time>2012-05-21T08:26:58Z</time>
      </trkpt>
      <trkpt lat="44.59235" lon="3.90203">
        <ele>1063.058</ele>
        <time>2012-05-21T08:27:05Z</time>
      </trkpt>
      <trkpt lat="44.59223" lon="3.902">
        <ele>1063.642</ele>
        <time>2012-05-21T08:27:16Z</time>
      </trkpt>
      <trkpt lat="44.59212" lon="3.902">
        <ele>1064.642</ele>
        <time>2012-05-21T08:27:24Z</time>
      </trkpt>
      <trkpt lat="44.59203" lon="3.90203">
        <ele>1065.438</ele>
        <time>2012-05-21T08:27:30Z</time>
      </trkpt>
      <trkpt lat="44.59199" lon="3.90202">
        <ele>1066.105</ele>
        <time>2012-05-21T08:27:35Z</time>
      </trkpt>
      <trkpt lat="44.59195" lon="3.90201">
        <ele>1066.505</ele>
        <time>2012-05-21T08:27:38Z</time>
      </trkpt>
      <trkpt lat="44.59182" lon="3.90197">
        <ele>1067.775</ele>
        <time>2012-05-21T08:27:49Z</time>
      </trkpt>
      <trkpt lat="44.5918" lon="3.90195">
        <ele>1068.11</ele>
        <time>2012-05-21T08:27:51Z</time>
      </trkpt>
      <trkpt lat="44.59179" lon="3.9019">
        <ele>1067.993</ele>
        <time>2012-05-21T08:27:54Z</time>
      </trkpt>
      <trkpt lat="44.59169" lon="3.90181">
        <ele>1069.961</ele>
        <time>2012-05-21T08:28:10Z</time>
      </trkpt>
      <trkpt lat="44.59168" lon="3.9018">
        <ele>1070.079</ele>
        <time>2012-05-21T08:28:12Z</time>
      </trkpt>
      <trkpt lat="44.59165" lon="3.90178">
        <ele>1069.662</ele>
        <time>2012-05-21T08:28:15Z</time>
      </trkpt>
      <trkpt lat="44.59156" lon="3.90167">
        <ele>1070.877</ele>
        <time>2012-05-21T08:28:30Z</time>
      </trkpt>
      <trkpt lat="44.59153" lon="3.90158">
        <ele>1071.732</ele>
        <time>2012-05-21T08:28:41Z</time>
      </trkpt>
      <trkpt lat="44.59139" lon="3.9015">
        <ele>1073.277</ele>
        <time>2012-05-21T08:28:56Z</time>
      </trkpt>
      <trkpt lat="44.59135" lon="3.90145">
        <ele>1074.157</ele>
        <time>2012-05-21T08:29:02Z</time>
      </trkpt>
      <trkpt lat="44.59126" lon="3.90139">
        <ele>1074.399</ele>
        <time>2012-05-21T08:29:11Z</time>
      </trkpt>
      <trkpt lat="44.59118" lon="3.90137">
        <ele>1074.783</ele>
        <time>2012-05-21T08:29:18Z</time>
      </trkpt>
      <trkpt lat="44.59118" lon="3.90134">
        <ele>1074.996</ele>
        <time>2012-05-21T08:29:20Z</time>
      </trkpt>
      <trkpt lat="44.59116" lon="3.90125">
        <ele>1075.341</ele>
        <time>2012-05-21T08:29:27Z</time>
      </trkpt>
      <trkpt lat="44.59113" lon="3.90122">
        <ele>1075.266</ele>
        <time>2012-05-21T08:29:31Z</time>
      </trkpt>
      <trkpt lat="44.59108" lon="3.90119">
        <ele>1075.577</ele>
        <time>2012-05-21T08:29:36Z</time>
      </trkpt>
      <trkpt lat="44.59103" lon="3.90118">
        <ele>1075.992</ele>
        <time>2012-05-21T08:29:41Z</time>
      </trkpt>
      <trkpt lat="44.59101" lon="3.90116">
        <ele>1076.502</ele>
        <time>2012-05-21T08:29:44Z</time>
      </trkpt>
      <trkpt lat="44.59096" lon="3.90112">
        <ele>1076.728</ele>
        <time>2012-05-21T08:29:49Z</time>
      </trkpt>
      <trkpt lat="44.59085" lon="3.90109">
        <ele>1077.183</ele>
        <time>2012-05-21T08:30:00Z</time>
      </trkpt>
      <trkpt lat="44.59082" lon="3.90107">
        <ele>1077.626</ele>
        <time>2012-05-21T08:30:03Z</time>
      </trkpt>
      <trkpt lat="44.59063" lon="3.90092">
        <ele>1079.464</ele>
        <time>2012-05-21T08:30:24Z</time>
      </trkpt>
      <trkpt lat="44.59043" lon="3.90079">
        <ele>1081.101</ele>
        <time>2012-05-21T08:30:45Z</time>
      </trkpt>
      <trkpt lat="44.59025" lon="3.90067">
        <ele>1082.349</ele>
        <time>2012-05-21T08:31:04Z</time>
      </trkpt>
      <trkpt lat="44.59006" lon="3.90052">
        <ele>1084.226</ele>
        <time>2012-05-21T08:31:27Z</time>
      </trkpt>
      <trkpt lat="44.59003" lon="3.9005">
        <ele>1084.57</ele>
        <time>2012-05-21T08:31:31Z</time>
      </trkpt>
      <trkpt lat="44.59001" lon="3.90048">
        <ele>1084.805</ele>
        <time>2012-05-21T08:31:33Z</time>
      </trkpt>
      <trkpt lat="44.58983" lon="3.90031">
        <ele>1086.464</ele>
        <time>2012-05-21T08:31:54Z</time>
      </trkpt>
      <trkpt lat="44.58973" lon="3.90023">
        <ele>1088.046</ele>
        <time>2012-05-21T08:32:05Z</time>
      </trkpt>
      <trkpt lat="44.5897" lon="3.90021">
        <ele>1088.174</ele>
        <time>2012-05-21T08:32:09Z</time>
      </trkpt>
      <trkpt lat="44.58957" lon="3.90006">
        <ele>1088.695</ele>
        <time>2012-05-21T08:32:26Z</time>
      </trkpt>
      <trkpt lat="44.58949" lon="3.89981">
        <ele>1089.781</ele>
        <time>2012-05-21T08:32:46Z</time>
      </trkpt>
      <trkpt lat="44.58949" lon="3.8997">
        <ele>1091.209</ele>
        <time>2012-05-21T08:33:03Z</time>
      </trkpt>
      <trkpt lat="44.58955" lon="3.8996">
        <ele>1091.394</ele>
        <time>2012-05-21T08:33:34Z</time>
      </trkpt>
      <trkpt lat="44.58963" lon="3.89952">
        <ele>1091.717</ele>
        <time>2012-05-21T08:33:47Z</time>
      </trkpt>
      <trkpt lat="44.58965" lon="3.89948">
        <ele>1092.549</ele>
        <time>2012-05-21T08:33:51Z</time>
      </trkpt>
      <trkpt lat="44.58987" lon="3.89925">
        <ele>1095.622</ele>
        <time>2012-05-21T08:34:16Z</time>
      </trkpt>
      <trkpt lat="44.59011" lon="3.8991">
        <ele>1097.469</ele>
        <time>2012-05-21T08:34:41Z</time>
      </trkpt>
      <trkpt lat="44.59026" lon="3.89901">
        <ele>1098.9</ele>
        <time>2012-05-21T08:35:00Z</time>
      </trkpt>
      <trkpt lat="44.59042" lon="3.89891">
        <ele>1101.869</ele>
        <time>2012-05-21T08:35:17Z</time>
      </trkpt>
      <trkpt lat="44.59046" lon="3.89889">
        <ele>1101.778</ele>
        <time>2012-05-21T08:35:21Z</time>
      </trkpt>
      <trkpt lat="44.59069" lon="3.89879">
        <ele>1104.139</ele>
        <time>2012-05-21T08:35:44Z</time>
      </trkpt>
      <trkpt lat="44.59087" lon="3.89871">
        <ele>1105.464</ele>
        <time>2012-05-21T08:36:03Z</time>
      </trkpt>
      <trkpt lat="44.59091" lon="3.89868">
        <ele>1106.17</ele>
        <time>2012-05-21T08:36:08Z</time>
      </trkpt>
      <trkpt lat="44.59097" lon="3.89866">
        <ele>1106.419</ele>
        <time>2012-05-21T08:36:23Z</time>
      </trkpt>
      <trkpt lat="44.59117" lon="3.89857">
        <ele>1107.469</ele>
        <time>2012-05-21T08:36:41Z</time>
      </trkpt>
      <trkpt lat="44.59126" lon="3.89854">
        <ele>1108.31</ele>
        <time>2012-05-21T08:37:01Z</time>
      </trkpt>
      <trkpt lat="44.59123" lon="3.89855">
        <ele>1107.894</ele>
        <time>2012-05-21T08:37:43Z</time>
      </trkpt>
      <trkpt lat="44.59125" lon="3.89853">
        <ele>1108.446</ele>
        <time>2012-05-21T08:38:01Z</time>
      </trkpt>
      <trkpt lat="44.59138" lon="3.89852">
        <ele>1109.216</ele>
        <time>2012-05-21T08:38:12Z</time>
      </trkpt>
      <trkpt lat="44.59143" lon="3.89852">
        <ele>1109.335</ele>
        <time>2012-05-21T08:38:16Z</time>
      </trkpt>
      <trkpt lat="44.59163" lon="3.89854">
        <ele>1110.893</ele>
        <time>2012-05-21T08:38:33Z</time>
      </trkpt>
      <trkpt lat="44.5917" lon="3.89853">
        <ele>1111.457</ele>
        <time>2012-05-21T08:38:39Z</time>
      </trkpt>
      <trkpt lat="44.59177" lon="3.89854">
        <ele>1111.911</ele>
        <time>2012-05-21T08:38:45Z</time>
      </trkpt>
      <trkpt lat="44.59187" lon="3.89853">
        <ele>1113.149</ele>
        <time>2012-05-21T08:38:54Z</time>
      </trkpt>
      <trkpt lat="44.59201" lon="3.89852">
        <ele>1114.548</ele>
        <time>2012-05-21T08:39:08Z</time>
      </trkpt>
      <trkpt lat="44.59216" lon="3.89848">
        <ele>1116.729</ele>
        <time>2012-05-21T08:39:22Z</time>
      </trkpt>
      <trkpt lat="44.5922" lon="3.89848">
        <ele>1117.725</ele>
        <time>2012-05-21T08:39:26Z</time>
      </trkpt>
      <trkpt lat="44.59234" lon="3.8984">
        <ele>1119.216</ele>
        <time>2012-05-21T08:39:41Z</time>
      </trkpt>
      <trkpt lat="44.59244" lon="3.89829">
        <ele>1120.446</ele>
        <time>2012-05-21T08:40:00Z</time>
      </trkpt>
      <trkpt lat="44.59251" lon="3.89822">
        <ele>1120.886</ele>
        <time>2012-05-21T08:40:31Z</time>
      </trkpt>
      <trkpt lat="44.59263" lon="3.89815">
        <ele>1123.242</ele>
        <time>2012-05-21T08:40:43Z</time>
      </trkpt>
      <trkpt lat="44.59282" lon="3.898">
        <ele>1125.98</ele>
        <time>2012-05-21T08:41:04Z</time>
      </trkpt>
      <trkpt lat="44.59286" lon="3.89796">
        <ele>1126.074</ele>
        <time>2012-05-21T08:41:08Z</time>
      </trkpt>
      <trkpt lat="44.59289" lon="3.89793">
        <ele>1126.223</ele>
        <time>2012-05-21T08:41:12Z</time>
      </trkpt>
      <trkpt lat="44.59313" lon="3.89772">
        <ele>1128.917</ele>
        <time>2012-05-21T08:41:37Z</time>
      </trkpt>
      <trkpt lat="44.59315" lon="3.8977">
        <ele>1129.496</ele>
        <time>2012-05-21T08:41:39Z</time>
      </trkpt>
      <trkpt lat="44.5933" lon="3.89752">
        <ele>1130.333</ele>
        <time>2012-05-21T08:41:58Z</time>
      </trkpt>
      <trkpt lat="44.59339" lon="3.89745">
        <ele>1131.243</ele>
        <time>2012-05-21T08:42:06Z</time>
      </trkpt>
      <trkpt lat="44.59358" lon="3.89722">
        <ele>1132.399</ele>
        <time>2012-05-21T08:42:27Z</time>
      </trkpt>
      <trkpt lat="44.59371" lon="3.89703">
        <ele>1134.391</ele>
        <time>2012-05-21T08:42:43Z</time>
      </trkpt>
      <trkpt lat="44.59368" lon="3.89685">
        <ele>1135.354</ele>
        <time>2012-05-21T08:42:55Z</time>
      </trkpt>
      <trkpt lat="44.59356" lon="3.89659">
        <ele>1136.921</ele>
        <time>2012-05-21T08:43:14Z</time>
      </trkpt>
      <trkpt lat="44.59354" lon="3.89653">
        <ele>1137.579</ele>
        <time>2012-05-21T08:43:19Z</time>
      </trkpt>
      <trkpt lat="44.59352" lon="3.89649">
        <ele>1137.712</ele>
        <time>2012-05-21T08:43:22Z</time>
      </trkpt>
      <trkpt lat="44.59349" lon="3.89647">
        <ele>1138.042</ele>
        <time>2012-05-21T08:43:25Z</time>
      </trkpt>
      <trkpt lat="44.59343" lon="3.89636">
        <ele>1139.557</ele>
        <time>2012-05-21T08:44:12Z</time>
      </trkpt>
      <trkpt lat="44.59342" lon="3.89631">
        <ele>1139.739</ele>
        <time>2012-05-21T08:44:17Z</time>
      </trkpt>
      <trkpt lat="44.59329" lon="3.89607">
        <ele>1141.582</ele>
        <time>2012-05-21T08:44:37Z</time>
      </trkpt>
      <trkpt lat="44.59318" lon="3.89592">
        <ele>1142.19</ele>
        <time>2012-05-21T08:45:21Z</time>
      </trkpt>
      <trkpt lat="44.59316" lon="3.89582">
        <ele>1143.818</ele>
        <time>2012-05-21T08:45:29Z</time>
      </trkpt>
      <trkpt lat="44.5931" lon="3.89572">
        <ele>1144.683</ele>
        <time>2012-05-21T08:45:38Z</time>
      </trkpt>
      <trkpt lat="44.59306" lon="3.89566">
        <ele>1145.193</ele>
        <time>2012-05-21T08:45:43Z</time>
      </trkpt>
      <trkpt lat="44.59299" lon="3.89547">
        <ele>1147.249</ele>
        <time>2012-05-21T08:45:57Z</time>
      </trkpt>
      <trkpt lat="44.5929" lon="3.89518">
        <ele>1149.27</ele>
        <time>2012-05-21T08:46:18Z</time>
      </trkpt>
      <trkpt lat="44.59286" lon="3.89511">
        <ele>1149.836</ele>
        <time>2012-05-21T08:46:24Z</time>
      </trkpt>
      <trkpt lat="44.59278" lon="3.89482">
        <ele>1151.933</ele>
        <time>2012-05-21T08:46:44Z</time>
      </trkpt>
      <trkpt lat="44.59273" lon="3.89451">
        <ele>1154.095</ele>
        <time>2012-05-21T08:47:04Z</time>
      </trkpt>
      <trkpt lat="44.5927" lon="3.89436">
        <ele>1154.832</ele>
        <time>2012-05-21T08:47:14Z</time>
      </trkpt>
      <trkpt lat="44.59268" lon="3.89424">
        <ele>1156.104</ele>
        <time>2012-05-21T08:47:23Z</time>
      </trkpt>
      <trkpt lat="44.5927" lon="3.89416">
        <ele>1156.545</ele>
        <time>2012-05-21T08:47:28Z</time>
      </trkpt>
      <trkpt lat="44.59269" lon="3.8941">
        <ele>1157.389</ele>
        <time>2012-05-21T08:47:33Z</time>
      </trkpt>
      <trkpt lat="44.59267" lon="3.89396">
        <ele>1157.294</ele>
        <time>2012-05-21T08:47:42Z</time>
      </trkpt>
      <trkpt lat="44.59268" lon="3.89391">
        <ele>1157.625</ele>
        <time>2012-05-21T08:47:45Z</time>
      </trkpt>
      <trkpt lat="44.59267" lon="3.89387">
        <ele>1157.876</ele>
        <time>2012-05-21T08:47:48Z</time>
      </trkpt>
      <trkpt lat="44.59264" lon="3.89375">
        <ele>1159.548</ele>
        <time>2012-05-21T08:47:55Z</time>
      </trkpt>
      <trkpt lat="44.59265" lon="3.89368">
        <ele>1160.171</ele>
        <time>2012-05-21T08:47:59Z</time>
      </trkpt>
      <trkpt lat="44.59263" lon="3.89362">
        <ele>1160.295</ele>
        <time>2012-05-21T08:48:04Z</time>
      </trkpt>
      <trkpt lat="44.59266" lon="3.89352">
        <ele>1160.885</ele>
        <time>2012-05-21T08:48:09Z</time>
      </trkpt>
      <trkpt lat="44.59268" lon="3.89349">
        <ele>1160.961</ele>
        <time>2012-05-21T08:48:11Z</time>
      </trkpt>
      <trkpt lat="44.59263" lon="3.89345">
        <ele>1162.094</ele>
        <time>2012-05-21T08:48:22Z</time>
      </trkpt>
      <trkpt lat="44.5926" lon="3.89341">
        <ele>1162.127</ele>
        <time>2012-05-21T08:48:28Z</time>
      </trkpt>
      <trkpt lat="44.59257" lon="3.89318">
        <ele>1163.588</ele>
        <time>2012-05-21T08:48:43Z</time>
      </trkpt>
      <trkpt lat="44.59256" lon="3.8929">
        <ele>1164.657</ele>
        <time>2012-05-21T08:49:02Z</time>
      </trkpt>
      <trkpt lat="44.59255" lon="3.89266">
        <ele>1166.728</ele>
        <time>2012-05-21T08:49:18Z</time>
      </trkpt>
      <trkpt lat="44.59256" lon="3.89249">
        <ele>1169.317</ele>
        <time>2012-05-21T08:49:29Z</time>
      </trkpt>
      <trkpt lat="44.59256" lon="3.89219">
        <ele>1170.426</ele>
        <time>2012-05-21T08:49:48Z</time>
      </trkpt>
      <trkpt lat="44.59256" lon="3.89217">
        <ele>1170.282</ele>
        <time>2012-05-21T08:49:50Z</time>
      </trkpt>
      <trkpt lat="44.59256" lon="3.89194">
        <ele>1172.617</ele>
        <time>2012-05-21T08:50:05Z</time>
      </trkpt>
      <trkpt lat="44.59255" lon="3.89183">
        <ele>1173.496</ele>
        <time>2012-05-21T08:50:12Z</time>
      </trkpt>
      <trkpt lat="44.59252" lon="3.89165">
        <ele>1174.185</ele>
        <time>2012-05-21T08:50:23Z</time>
      </trkpt>
      <trkpt lat="44.59251" lon="3.89162">
        <ele>1174.476</ele>
        <time>2012-05-21T08:50:25Z</time>
      </trkpt>
      <trkpt lat="44.59248" lon="3.89156">
        <ele>1174.833</ele>
        <time>2012-05-21T08:50:30Z</time>
      </trkpt>
      <trkpt lat="44.59246" lon="3.89145">
        <ele>1175.877</ele>
        <time>2012-05-21T08:50:37Z</time>
      </trkpt>
      <trkpt lat="44.59243" lon="3.89135">
        <ele>1176.785</ele>
        <time>2012-05-21T08:50:44Z</time>
      </trkpt>
      <trkpt lat="44.59241" lon="3.89128">
        <ele>1177.556</ele>
        <time>2012-05-21T08:50:49Z</time>
      </trkpt>
      <trkpt lat="44.5924" lon="3.89125">
        <ele>1177.47</ele>
        <time>2012-05-21T08:50:51Z</time>
      </trkpt>
      <trkpt lat="44.59233" lon="3.89119">
        <ele>1178.151</ele>
        <time>2012-05-21T08:50:56Z</time>
      </trkpt>
      <trkpt lat="44.59231" lon="3.89117">
        <ele>1178.486</ele>
        <time>2012-05-21T08:50:58Z</time>
      </trkpt>
      <trkpt lat="44.59229" lon="3.89111">
        <ele>1179.55</ele>
        <time>2012-05-21T08:51:02Z</time>
      </trkpt>
      <trkpt lat="44.59225" lon="3.89103">
        <ele>1180.183</ele>
        <time>2012-05-21T08:51:10Z</time>
      </trkpt>
      <trkpt lat="44.5922" lon="3.89096">
        <ele>1180.813</ele>
        <time>2012-05-21T08:51:16Z</time>
      </trkpt>
      <trkpt lat="44.59214" lon="3.89082">
        <ele>1181.444</ele>
        <time>2012-05-21T08:51:28Z</time>
      </trkpt>
      <trkpt lat="44.59207" lon="3.8907">
        <ele>1182.043</ele>
        <time>2012-05-21T08:51:41Z</time>
      </trkpt>
      <trkpt lat="44.59204" lon="3.89064">
        <ele>1183.459</ele>
        <time>2012-05-21T08:51:46Z</time>
      </trkpt>
      <trkpt lat="44.592" lon="3.8906">
        <ele>1184.428</ele>
        <time>2012-05-21T08:51:50Z</time>
      </trkpt>
      <trkpt lat="44.59198" lon="3.89058">
        <ele>1184.13</ele>
        <time>2012-05-21T08:51:52Z</time>
      </trkpt>
      <trkpt lat="44.59196" lon="3.89054">
        <ele>1184.835</ele>
        <time>2012-05-21T08:51:56Z</time>
      </trkpt>
      <trkpt lat="44.59191" lon="3.89048">
        <ele>1185.419</ele>
        <time>2012-05-21T08:52:02Z</time>
      </trkpt>
      <trkpt lat="44.59187" lon="3.89048">
        <ele>1185.5</ele>
        <time>2012-05-21T08:52:04Z</time>
      </trkpt>
      <trkpt lat="44.59184" lon="3.89045">
        <ele>1185.896</ele>
        <time>2012-05-21T08:52:07Z</time>
      </trkpt>
      <trkpt lat="44.59184" lon="3.89042">
        <ele>1185.797</ele>
        <time>2012-05-21T08:52:09Z</time>
      </trkpt>
      <trkpt lat="44.5918" lon="3.89039">
        <ele>1185.868</ele>
        <time>2012-05-21T08:52:13Z</time>
      </trkpt>
      <trkpt lat="44.59179" lon="3.89036">
        <ele>1186.279</ele>
        <time>2012-05-21T08:52:15Z</time>
      </trkpt>
      <trkpt lat="44.59174" lon="3.89022">
        <ele>1187.521</ele>
        <time>2012-05-21T08:52:27Z</time>
      </trkpt>
      <trkpt lat="44.59164" lon="3.89021">
        <ele>1188.631</ele>
        <time>2012-05-21T08:52:34Z</time>
      </trkpt>
      <trkpt lat="44.59158" lon="3.89013">
        <ele>1189.35</ele>
        <time>2012-05-21T08:52:40Z</time>
      </trkpt>
      <trkpt lat="44.59154" lon="3.89013">
        <ele>1189.101</ele>
        <time>2012-05-21T08:52:43Z</time>
      </trkpt>
      <trkpt lat="44.59148" lon="3.8901">
        <ele>1190.316</ele>
        <time>2012-05-21T08:52:48Z</time>
      </trkpt>
      <trkpt lat="44.59138" lon="3.89009">
        <ele>1191.195</ele>
        <time>2012-05-21T08:52:58Z</time>
      </trkpt>
      <trkpt lat="44.59133" lon="3.88995">
        <ele>1192.218</ele>
        <time>2012-05-21T08:53:08Z</time>
      </trkpt>
      <trkpt lat="44.59127" lon="3.88986">
        <ele>1192.848</ele>
        <time>2012-05-21T08:53:16Z</time>
      </trkpt>
      <trkpt lat="44.59115" lon="3.88975">
        <ele>1194.013</ele>
        <time>2012-05-21T08:53:28Z</time>
      </trkpt>
      <trkpt lat="44.5911" lon="3.88973">
        <ele>1193.974</ele>
        <time>2012-05-21T08:53:32Z</time>
      </trkpt>
      <trkpt lat="44.59106" lon="3.88974">
        <ele>1194.267</ele>
        <time>2012-05-21T08:53:34Z</time>
      </trkpt>
      <trkpt lat="44.59101" lon="3.8897">
        <ele>1194.759</ele>
        <time>2012-05-21T08:53:39Z</time>
      </trkpt>
      <trkpt lat="44.59092" lon="3.88967">
        <ele>1196.496</ele>
        <time>2012-05-21T08:53:47Z</time>
      </trkpt>
      <trkpt lat="44.59089" lon="3.88966">
        <ele>1196.621</ele>
        <time>2012-05-21T08:53:49Z</time>
      </trkpt>
      <trkpt lat="44.5908" lon="3.8896">
        <ele>1197.937</ele>
        <time>2012-05-21T08:53:58Z</time>
      </trkpt>
      <trkpt lat="44.59076" lon="3.88959">
        <ele>1198.169</ele>
        <time>2012-05-21T08:54:02Z</time>
      </trkpt>
      <trkpt lat="44.59072" lon="3.88954">
        <ele>1198.649</ele>
        <time>2012-05-21T08:54:07Z</time>
      </trkpt>
      <trkpt lat="44.59071" lon="3.88953">
        <ele>1198.413</ele>
        <time>2012-05-21T08:54:09Z</time>
      </trkpt>
      <trkpt lat="44.59066" lon="3.88942">
        <ele>1200.784</ele>
        <time>2012-05-21T08:54:18Z</time>
      </trkpt>
      <trkpt lat="44.5905" lon="3.88934">
        <ele>1201.54</ele>
        <time>2012-05-21T08:54:35Z</time>
      </trkpt>
      <trkpt lat="44.59038" lon="3.88923">
        <ele>1203.526</ele>
        <time>2012-05-21T08:54:50Z</time>
      </trkpt>
      <trkpt lat="44.59024" lon="3.8891">
        <ele>1204.803</ele>
        <time>2012-05-21T08:55:07Z</time>
      </trkpt>
      <trkpt lat="44.5902" lon="3.88901">
        <ele>1205.892</ele>
        <time>2012-05-21T08:55:15Z</time>
      </trkpt>
      <trkpt lat="44.5901" lon="3.88879">
        <ele>1207.266</ele>
        <time>2012-05-21T08:55:33Z</time>
      </trkpt>
      <trkpt lat="44.59009" lon="3.88877">
        <ele>1207.312</ele>
        <time>2012-05-21T08:55:35Z</time>
      </trkpt>
      <trkpt lat="44.59" lon="3.88852">
        <ele>1208.851</ele>
        <time>2012-05-21T08:55:55Z</time>
      </trkpt>
      <trkpt lat="44.58999" lon="3.8885">
        <ele>1209.178</ele>
        <time>2012-05-21T08:55:56Z</time>
      </trkpt>
      <trkpt lat="44.58995" lon="3.88825">
        <ele>1212.294</ele>
        <time>2012-05-21T08:56:13Z</time>
      </trkpt>
      <trkpt lat="44.58992" lon="3.88799">
        <ele>1213.828</ele>
        <time>2012-05-21T08:56:32Z</time>
      </trkpt>
      <trkpt lat="44.58992" lon="3.88787">
        <ele>1214.438</ele>
        <time>2012-05-21T08:56:41Z</time>
      </trkpt>
      <trkpt lat="44.58992" lon="3.88784">
        <ele>1214.848</ele>
        <time>2012-05-21T08:56:44Z</time>
      </trkpt>
      <trkpt lat="44.58992" lon="3.88781">
        <ele>1214.766</ele>
        <time>2012-05-21T08:56:47Z</time>
      </trkpt>
      <trkpt lat="44.58992" lon="3.88774">
        <ele>1215.412</ele>
        <time>2012-05-21T08:56:53Z</time>
      </trkpt>
      <trkpt lat="44.58991" lon="3.8877">
        <ele>1215.505</ele>
        <time>2012-05-21T08:56:56Z</time>
      </trkpt>
      <trkpt lat="44.58992" lon="3.88766">
        <ele>1215.665</ele>
        <time>2012-05-21T08:56:59Z</time>
      </trkpt>
      <trkpt lat="44.58991" lon="3.88762">
        <ele>1215.502</ele>
        <time>2012-05-21T08:57:02Z</time>
      </trkpt>
      <trkpt lat="44.58989" lon="3.88743">
        <ele>1218.403</ele>
        <time>2012-05-21T08:57:16Z</time>
      </trkpt>
      <trkpt lat="44.58988" lon="3.88739">
        <ele>1218.5</ele>
        <time>2012-05-21T08:57:18Z</time>
      </trkpt>
      <trkpt lat="44.58984" lon="3.88718">
        <ele>1218.927</ele>
        <time>2012-05-21T08:57:35Z</time>
      </trkpt>
      <trkpt lat="44.58984" lon="3.88714">
        <ele>1219.392</ele>
        <time>2012-05-21T08:57:38Z</time>
      </trkpt>
      <trkpt lat="44.58982" lon="3.88697">
        <ele>1221.47</ele>
        <time>2012-05-21T08:57:51Z</time>
      </trkpt>
      <trkpt lat="44.58979" lon="3.88673">
        <ele>1223.598</ele>
        <time>2012-05-21T08:58:10Z</time>
      </trkpt>
      <trkpt lat="44.58977" lon="3.88653">
        <ele>1225.82</ele>
        <time>2012-05-21T08:58:27Z</time>
      </trkpt>
      <trkpt lat="44.58977" lon="3.88637">
        <ele>1227.607</ele>
        <time>2012-05-21T08:58:40Z</time>
      </trkpt>
      <trkpt lat="44.58973" lon="3.88619">
        <ele>1228.996</ele>
        <time>2012-05-21T08:58:54Z</time>
      </trkpt>
      <trkpt lat="44.58972" lon="3.88612">
        <ele>1229.694</ele>
        <time>2012-05-21T08:59:00Z</time>
      </trkpt>
      <trkpt lat="44.58971" lon="3.88603">
        <ele>1229.677</ele>
        <time>2012-05-21T08:59:06Z</time>
      </trkpt>
      <trkpt lat="44.58966" lon="3.88593">
        <ele>1230.477</ele>
        <time>2012-05-21T08:59:14Z</time>
      </trkpt>
      <trkpt lat="44.58963" lon="3.88573">
        <ele>1232.27</ele>
        <time>2012-05-21T08:59:29Z</time>
      </trkpt>
      <trkpt lat="44.58954" lon="3.88563">
        <ele>1234.252</ele>
        <time>2012-05-21T08:59:42Z</time>
      </trkpt>
      <trkpt lat="44.58947" lon="3.88558">
        <ele>1234.118</ele>
        <time>2012-05-21T08:59:51Z</time>
      </trkpt>
      <trkpt lat="44.58934" lon="3.88554">
        <ele>1235.898</ele>
        <time>2012-05-21T09:00:04Z</time>
      </trkpt>
      <trkpt lat="44.58918" lon="3.88563">
        <ele>1237.52</ele>
        <time>2012-05-21T09:00:20Z</time>
      </trkpt>
      <trkpt lat="44.58912" lon="3.8857">
        <ele>1238.75</ele>
        <time>2012-05-21T09:00:29Z</time>
      </trkpt>
      <trkpt lat="44.58911" lon="3.88573">
        <ele>1238.023</ele>
        <time>2012-05-21T09:00:31Z</time>
      </trkpt>
      <trkpt lat="44.58909" lon="3.88575">
        <ele>1238.823</ele>
        <time>2012-05-21T09:00:34Z</time>
      </trkpt>
      <trkpt lat="44.58905" lon="3.8858">
        <ele>1238.559</ele>
        <time>2012-05-21T09:00:39Z</time>
      </trkpt>
      <trkpt lat="44.58901" lon="3.88582">
        <ele>1239.023</ele>
        <time>2012-05-21T09:00:43Z</time>
      </trkpt>
      <trkpt lat="44.58899" lon="3.88584">
        <ele>1238.597</ele>
        <time>2012-05-21T09:00:45Z</time>
      </trkpt>
      <trkpt lat="44.58889" lon="3.88589">
        <ele>1239.313</ele>
        <time>2012-05-21T09:00:56Z</time>
      </trkpt>
      <trkpt lat="44.58883" lon="3.88593">
        <ele>1240.039</ele>
        <time>2012-05-21T09:01:01Z</time>
      </trkpt>
      <trkpt lat="44.58871" lon="3.88597">
        <ele>1240.967</ele>
        <time>2012-05-21T09:01:15Z</time>
      </trkpt>
      <trkpt lat="44.58861" lon="3.886">
        <ele>1242.218</ele>
        <time>2012-05-21T09:01:27Z</time>
      </trkpt>
      <trkpt lat="44.58859" lon="3.886">
        <ele>1242.299</ele>
        <time>2012-05-21T09:01:29Z</time>
      </trkpt>
      <trkpt lat="44.58857" lon="3.88602">
        <ele>1243.171</ele>
        <time>2012-05-21T09:01:32Z</time>
      </trkpt>
      <trkpt lat="44.58847" lon="3.88605">
        <ele>1243.644</ele>
        <time>2012-05-21T09:01:42Z</time>
      </trkpt>
      <trkpt lat="44.58839" lon="3.88609">
        <ele>1243.981</ele>
        <time>2012-05-21T09:01:52Z</time>
      </trkpt>
      <trkpt lat="44.58835" lon="3.88612">
        <ele>1243.75</ele>
        <time>2012-05-21T09:01:57Z</time>
      </trkpt>
      <trkpt lat="44.5883" lon="3.88612">
        <ele>1244.549</ele>
        <time>2012-05-21T09:02:01Z</time>
      </trkpt>
      <trkpt lat="44.58827" lon="3.88615">
        <ele>1245.342</ele>
        <time>2012-05-21T09:02:06Z</time>
      </trkpt>
      <trkpt lat="44.58819" lon="3.88618">
        <ele>1245.783</ele>
        <time>2012-05-21T09:02:15Z</time>
      </trkpt>
      <trkpt lat="44.58802" lon="3.88619">
        <ele>1247.871</ele>
        <time>2012-05-21T09:02:30Z</time>
      </trkpt>
      <trkpt lat="44.58784" lon="3.88611">
        <ele>1248.676</ele>
        <time>2012-05-21T09:02:49Z</time>
      </trkpt>
      <trkpt lat="44.58777" lon="3.88605">
        <ele>1249.596</ele>
        <time>2012-05-21T09:02:58Z</time>
      </trkpt>
      <trkpt lat="44.58772" lon="3.88599">
        <ele>1250.163</ele>
        <time>2012-05-21T09:03:04Z</time>
      </trkpt>
      <trkpt lat="44.58765" lon="3.88589">
        <ele>1250.417</ele>
        <time>2012-05-21T09:03:14Z</time>
      </trkpt>
      <trkpt lat="44.58759" lon="3.88579">
        <ele>1251.611</ele>
        <time>2012-05-21T09:03:25Z</time>
      </trkpt>
      <trkpt lat="44.58757" lon="3.88576">
        <ele>1252.152</ele>
        <time>2012-05-21T09:03:28Z</time>
      </trkpt>
      <trkpt lat="44.58753" lon="3.88569">
        <ele>1252.764</ele>
        <time>2012-05-21T09:03:35Z</time>
      </trkpt>
      <trkpt lat="44.58745" lon="3.88557">
        <ele>1253.578</ele>
        <time>2012-05-21T09:03:47Z</time>
      </trkpt>
      <trkpt lat="44.58744" lon="3.88555">
        <ele>1254.451</ele>
        <time>2012-05-21T09:03:50Z</time>
      </trkpt>
      <trkpt lat="44.5874" lon="3.88544">
        <ele>1256.072</ele>
        <time>2012-05-21T09:04:01Z</time>
      </trkpt>
      <trkpt lat="44.58735" lon="3.88533">
        <ele>1257.296</ele>
        <time>2012-05-21T09:04:11Z</time>
      </trkpt>
      <trkpt lat="44.58726" lon="3.88528">
        <ele>1257.56</ele>
        <time>2012-05-21T09:04:21Z</time>
      </trkpt>
      <trkpt lat="44.5872" lon="3.8852">
        <ele>1259.177</ele>
        <time>2012-05-21T09:04:30Z</time>
      </trkpt>
      <trkpt lat="44.58716" lon="3.88517">
        <ele>1259.598</ele>
        <time>2012-05-21T09:04:34Z</time>
      </trkpt>
      <trkpt lat="44.58711" lon="3.88509">
        <ele>1260.882</ele>
        <time>2012-05-21T09:04:44Z</time>
      </trkpt>
      <trkpt lat="44.5871" lon="3.88507">
        <ele>1261.242</ele>
        <time>2012-05-21T09:04:46Z</time>
      </trkpt>
      <trkpt lat="44.58702" lon="3.88496">
        <ele>1262.363</ele>
        <time>2012-05-21T09:04:56Z</time>
      </trkpt>
      <trkpt lat="44.58702" lon="3.88488">
        <ele>1262.969</ele>
        <time>2012-05-21T09:05:01Z</time>
      </trkpt>
      <trkpt lat="44.58701" lon="3.88484">
        <ele>1263.123</ele>
        <time>2012-05-21T09:05:04Z</time>
      </trkpt>
      <trkpt lat="44.58698" lon="3.88477">
        <ele>1263.731</ele>
        <time>2012-05-21T09:05:09Z</time>
      </trkpt>
      <trkpt lat="44.58696" lon="3.88477">
        <ele>1263.737</ele>
        <time>2012-05-21T09:05:12Z</time>
      </trkpt>
      <trkpt lat="44.58693" lon="3.88477">
        <ele>1264.418</ele>
        <time>2012-05-21T09:05:15Z</time>
      </trkpt>
      <trkpt lat="44.58691" lon="3.88476">
        <ele>1264.64</ele>
        <time>2012-05-21T09:05:17Z</time>
      </trkpt>
      <trkpt lat="44.58675" lon="3.88485">
        <ele>1266.207</ele>
        <time>2012-05-21T09:05:31Z</time>
      </trkpt>
      <trkpt lat="44.58673" lon="3.88487">
        <ele>1265.854</ele>
        <time>2012-05-21T09:05:34Z</time>
      </trkpt>
      <trkpt lat="44.58668" lon="3.88487">
        <ele>1266.613</ele>
        <time>2012-05-21T09:05:38Z</time>
      </trkpt>
      <trkpt lat="44.58667" lon="3.88488">
        <ele>1266.829</ele>
        <time>2012-05-21T09:05:40Z</time>
      </trkpt>
      <trkpt lat="44.58663" lon="3.88492">
        <ele>1266.917</ele>
        <time>2012-05-21T09:05:45Z</time>
      </trkpt>
      <trkpt lat="44.58646" lon="3.88499">
        <ele>1267.713</ele>
        <time>2012-05-21T09:06:02Z</time>
      </trkpt>
      <trkpt lat="44.58641" lon="3.885">
        <ele>1268.711</ele>
        <time>2012-05-21T09:06:06Z</time>
      </trkpt>
      <trkpt lat="44.58634" lon="3.885">
        <ele>1268.899</ele>
        <time>2012-05-21T09:06:13Z</time>
      </trkpt>
      <trkpt lat="44.58616" lon="3.88494">
        <ele>1269.845</ele>
        <time>2012-05-21T09:06:32Z</time>
      </trkpt>
      <trkpt lat="44.58601" lon="3.88486">
        <ele>1271.33</ele>
        <time>2012-05-21T09:06:50Z</time>
      </trkpt>
      <trkpt lat="44.5858" lon="3.88475">
        <ele>1272.687</ele>
        <time>2012-05-21T09:07:12Z</time>
      </trkpt>
      <trkpt lat="44.58565" lon="3.88464">
        <ele>1274.081</ele>
        <time>2012-05-21T09:07:30Z</time>
      </trkpt>
      <trkpt lat="44.58552" lon="3.88452">
        <ele>1274.976</ele>
        <time>2012-05-21T09:07:45Z</time>
      </trkpt>
      <trkpt lat="44.5854" lon="3.88436">
        <ele>1276.906</ele>
        <time>2012-05-21T09:08:28Z</time>
      </trkpt>
      <trkpt lat="44.58538" lon="3.88423">
        <ele>1276.903</ele>
        <time>2012-05-21T09:09:10Z</time>
      </trkpt>
      <trkpt lat="44.58538" lon="3.8842">
        <ele>1276.942</ele>
        <time>2012-05-21T09:09:17Z</time>
      </trkpt>
      <trkpt lat="44.58538" lon="3.88413">
        <ele>1277.322</ele>
        <time>2012-05-21T09:09:22Z</time>
      </trkpt>
      <trkpt lat="44.58536" lon="3.88401">
        <ele>1278.096</ele>
        <time>2012-05-21T09:09:30Z</time>
      </trkpt>
      <trkpt lat="44.58535" lon="3.8838">
        <ele>1279.915</ele>
        <time>2012-05-21T09:09:46Z</time>
      </trkpt>
      <trkpt lat="44.58534" lon="3.88355">
        <ele>1280.838</ele>
        <time>2012-05-21T09:10:03Z</time>
      </trkpt>
      <trkpt lat="44.58534" lon="3.88339">
        <ele>1281.617</ele>
        <time>2012-05-21T09:13:33Z</time>
      </trkpt>
      <trkpt lat="44.58533" lon="3.88327">
        <ele>1281.927</ele>
        <time>2012-05-21T09:13:52Z</time>
      </trkpt>
      <trkpt lat="44.58532" lon="3.88318">
        <ele>1282.209</ele>
        <time>2012-05-21T09:13:58Z</time>
      </trkpt>
      <trkpt lat="44.58528" lon="3.88288">
        <ele>1283.446</ele>
        <time>2012-05-21T09:14:20Z</time>
      </trkpt>
      <trkpt lat="44.58524" lon="3.88259">
        <ele>1285.254</ele>
        <time>2012-05-21T09:14:40Z</time>
      </trkpt>
      <trkpt lat="44.58515" lon="3.8823">
        <ele>1286.628</ele>
        <time>2012-05-21T09:15:02Z</time>
      </trkpt>
      <trkpt lat="44.58503" lon="3.88209">
        <ele>1288.19</ele>
        <time>2012-05-21T09:15:19Z</time>
      </trkpt>
      <trkpt lat="44.58497" lon="3.88203">
        <ele>1288.143</ele>
        <time>2012-05-21T09:15:26Z</time>
      </trkpt>
      <trkpt lat="44.5848" lon="3.88186">
        <ele>1289.7</ele>
        <time>2012-05-21T09:15:46Z</time>
      </trkpt>
      <trkpt lat="44.58462" lon="3.88168">
        <ele>1290.543</ele>
        <time>2012-05-21T09:16:06Z</time>
      </trkpt>
      <trkpt lat="44.58443" lon="3.88152">
        <ele>1291.23</ele>
        <time>2012-05-21T09:16:26Z</time>
      </trkpt>
      <trkpt lat="44.5844" lon="3.8815">
        <ele>1291.665</ele>
        <time>2012-05-21T09:16:29Z</time>
      </trkpt>
      <trkpt lat="44.58421" lon="3.88136">
        <ele>1292.837</ele>
        <time>2012-05-21T09:16:50Z</time>
      </trkpt>
      <trkpt lat="44.58402" lon="3.8812">
        <ele>1293.986</ele>
        <time>2012-05-21T09:17:11Z</time>
      </trkpt>
      <trkpt lat="44.58397" lon="3.88115">
        <ele>1294.355</ele>
        <time>2012-05-21T09:17:16Z</time>
      </trkpt>
      <trkpt lat="44.58382" lon="3.881">
        <ele>1294.998</ele>
        <time>2012-05-21T09:17:33Z</time>
      </trkpt>
      <trkpt lat="44.58367" lon="3.88083">
        <ele>1295.845</ele>
        <time>2012-05-21T09:17:51Z</time>
      </trkpt>
      <trkpt lat="44.58354" lon="3.88061">
        <ele>1296.395</ele>
        <time>2012-05-21T09:18:11Z</time>
      </trkpt>
      <trkpt lat="44.58348" lon="3.88041">
        <ele>1297.707</ele>
        <time>2012-05-21T09:18:27Z</time>
      </trkpt>
      <trkpt lat="44.58347" lon="3.88039">
        <ele>1297.91</ele>
        <time>2012-05-21T09:18:29Z</time>
      </trkpt>
      <trkpt lat="44.58346" lon="3.88022">
        <ele>1299.049</ele>
        <time>2012-05-21T09:18:42Z</time>
      </trkpt>
      <trkpt lat="44.58346" lon="3.88001">
        <ele>1301.407</ele>
        <time>2012-05-21T09:18:57Z</time>
      </trkpt>
      <trkpt lat="44.58347" lon="3.87989">
        <ele>1302.826</ele>
        <time>2012-05-21T09:19:07Z</time>
      </trkpt>
      <trkpt lat="44.58359" lon="3.87975">
        <ele>1304.228</ele>
        <time>2012-05-21T09:19:24Z</time>
      </trkpt>
      <trkpt lat="44.58363" lon="3.87972">
        <ele>1304.022</ele>
        <time>2012-05-21T09:20:13Z</time>
      </trkpt>
      <trkpt lat="44.58365" lon="3.87972">
        <ele>1303.234</ele>
        <time>2012-05-21T09:24:03Z</time>
      </trkpt>
      <trkpt lat="44.58372" lon="3.87973">
        <ele>1303.699</ele>
        <time>2012-05-21T09:24:17Z</time>
      </trkpt>
      <trkpt lat="44.58378" lon="3.8797">
        <ele>1303.35</ele>
        <time>2012-05-21T09:24:34Z</time>
      </trkpt>
      <trkpt lat="44.58399" lon="3.87965">
        <ele>1303.511</ele>
        <time>2012-05-21T09:24:56Z</time>
      </trkpt>
      <trkpt lat="44.58417" lon="3.87953">
        <ele>1303.267</ele>
        <time>2012-05-21T09:25:17Z</time>
      </trkpt>
      <trkpt lat="44.58431" lon="3.87943">
        <ele>1304.977</ele>
        <time>2012-05-21T09:25:34Z</time>
      </trkpt>
      <trkpt lat="44.58451" lon="3.87926">
        <ele>1306.359</ele>
        <time>2012-05-21T09:25:57Z</time>
      </trkpt>
      <trkpt lat="44.58474" lon="3.87904">
        <ele>1307.225</ele>
        <time>2012-05-21T09:26:23Z</time>
      </trkpt>
      <trkpt lat="44.58498" lon="3.87878">
        <ele>1306.978</ele>
        <time>2012-05-21T09:26:49Z</time>
      </trkpt>
      <trkpt lat="44.58512" lon="3.87866">
        <ele>1307.774</ele>
        <time>2012-05-21T09:27:03Z</time>
      </trkpt>
      <trkpt lat="44.58532" lon="3.87844">
        <ele>1307.672</ele>
        <time>2012-05-21T09:27:24Z</time>
      </trkpt>
      <trkpt lat="44.58543" lon="3.87836">
        <ele>1308.771</ele>
        <time>2012-05-21T09:27:35Z</time>
      </trkpt>
      <trkpt lat="44.58558" lon="3.87802">
        <ele>1307.487</ele>
        <time>2012-05-21T09:28:00Z</time>
      </trkpt>
      <trkpt lat="44.58562" lon="3.87768">
        <ele>1307.161</ele>
        <time>2012-05-21T09:28:20Z</time>
      </trkpt>
      <trkpt lat="44.58563" lon="3.87756">
        <ele>1306.895</ele>
        <time>2012-05-21T09:28:27Z</time>
      </trkpt>
      <trkpt lat="44.5857" lon="3.87719">
        <ele>1306.905</ele>
        <time>2012-05-21T09:28:51Z</time>
      </trkpt>
      <trkpt lat="44.5857" lon="3.87712">
        <ele>1306.865</ele>
        <time>2012-05-21T09:28:55Z</time>
      </trkpt>
      <trkpt lat="44.58575" lon="3.87682">
        <ele>1307.087</ele>
        <time>2012-05-21T09:29:15Z</time>
      </trkpt>
      <trkpt lat="44.58577" lon="3.8767">
        <ele>1306.982</ele>
        <time>2012-05-21T09:29:28Z</time>
      </trkpt>
      <trkpt lat="44.58586" lon="3.8763">
        <ele>1307.048</ele>
        <time>2012-05-21T09:29:53Z</time>
      </trkpt>
      <trkpt lat="44.58594" lon="3.87595">
        <ele>1307.95</ele>
        <time>2012-05-21T09:30:16Z</time>
      </trkpt>
      <trkpt lat="44.586" lon="3.87556">
        <ele>1308.622</ele>
        <time>2012-05-21T09:30:40Z</time>
      </trkpt>
      <trkpt lat="44.58607" lon="3.87518">
        <ele>1309.784</ele>
        <time>2012-05-21T09:31:05Z</time>
      </trkpt>
      <trkpt lat="44.58617" lon="3.87472">
        <ele>1309.867</ele>
        <time>2012-05-21T09:31:35Z</time>
      </trkpt>
      <trkpt lat="44.58618" lon="3.87467">
        <ele>1309.99</ele>
        <time>2012-05-21T09:31:38Z</time>
      </trkpt>
      <trkpt lat="44.58619" lon="3.87465">
        <ele>1310.263</ele>
        <time>2012-05-21T09:31:40Z</time>
      </trkpt>
      <trkpt lat="44.58622" lon="3.87444">
        <ele>1310.495</ele>
        <time>2012-05-21T09:31:53Z</time>
      </trkpt>
      <trkpt lat="44.58623" lon="3.8744">
        <ele>1311.025</ele>
        <time>2012-05-21T09:31:56Z</time>
      </trkpt>
      <trkpt lat="44.58625" lon="3.87433">
        <ele>1310.572</ele>
        <time>2012-05-21T09:32:01Z</time>
      </trkpt>
      <trkpt lat="44.58629" lon="3.87397">
        <ele>1310.229</ele>
        <time>2012-05-21T09:32:23Z</time>
      </trkpt>
      <trkpt lat="44.58631" lon="3.87349">
        <ele>1308.723</ele>
        <time>2012-05-21T09:32:52Z</time>
      </trkpt>
      <trkpt lat="44.58634" lon="3.87311">
        <ele>1308.232</ele>
        <time>2012-05-21T09:33:14Z</time>
      </trkpt>
      <trkpt lat="44.58635" lon="3.87268">
        <ele>1307.342</ele>
        <time>2012-05-21T09:33:40Z</time>
      </trkpt>
      <trkpt lat="44.58632" lon="3.87222">
        <ele>1306.903</ele>
        <time>2012-05-21T09:34:08Z</time>
      </trkpt>
      <trkpt lat="44.58632" lon="3.8722">
        <ele>1306.902</ele>
        <time>2012-05-21T09:34:09Z</time>
      </trkpt>
      <trkpt lat="44.5863" lon="3.87205">
        <ele>1307.271</ele>
        <time>2012-05-21T09:34:18Z</time>
      </trkpt>
      <trkpt lat="44.58628" lon="3.872">
        <ele>1307.421</ele>
        <time>2012-05-21T09:34:21Z</time>
      </trkpt>
      <trkpt lat="44.58623" lon="3.87158">
        <ele>1307.661</ele>
        <time>2012-05-21T09:34:46Z</time>
      </trkpt>
      <trkpt lat="44.58619" lon="3.87112">
        <ele>1306.55</ele>
        <time>2012-05-21T09:35:13Z</time>
      </trkpt>
      <trkpt lat="44.58609" lon="3.87074">
        <ele>1305.838</ele>
        <time>2012-05-21T09:35:37Z</time>
      </trkpt>
      <trkpt lat="44.586" lon="3.87044">
        <ele>1306.045</ele>
        <time>2012-05-21T09:35:58Z</time>
      </trkpt>
      <trkpt lat="44.5859" lon="3.87011">
        <ele>1305.921</ele>
        <time>2012-05-21T09:36:21Z</time>
      </trkpt>
      <trkpt lat="44.5859" lon="3.87003">
        <ele>1305.404</ele>
        <time>2012-05-21T09:36:25Z</time>
      </trkpt>
      <trkpt lat="44.58591" lon="3.86998">
        <ele>1305.639</ele>
        <time>2012-05-21T09:36:28Z</time>
      </trkpt>
      <trkpt lat="44.5859" lon="3.86992">
        <ele>1305.645</ele>
        <time>2012-05-21T09:36:32Z</time>
      </trkpt>
      <trkpt lat="44.58582" lon="3.86954">
        <ele>1305.317</ele>
        <time>2012-05-21T09:36:55Z</time>
      </trkpt>
      <trkpt lat="44.58573" lon="3.86927">
        <ele>1305.385</ele>
        <time>2012-05-21T09:37:14Z</time>
      </trkpt>
      <trkpt lat="44.5857" lon="3.86911">
        <ele>1305.604</ele>
        <time>2012-05-21T09:37:23Z</time>
      </trkpt>
      <trkpt lat="44.58566" lon="3.86894">
        <ele>1306.418</ele>
        <time>2012-05-21T09:37:35Z</time>
      </trkpt>
      <trkpt lat="44.58548" lon="3.86861">
        <ele>1304.976</ele>
        <time>2012-05-21T09:37:58Z</time>
      </trkpt>
      <trkpt lat="44.58538" lon="3.86835">
        <ele>1304.564</ele>
        <time>2012-05-21T09:38:16Z</time>
      </trkpt>
      <trkpt lat="44.58528" lon="3.86801">
        <ele>1304.786</ele>
        <time>2012-05-21T09:38:37Z</time>
      </trkpt>
      <trkpt lat="44.58518" lon="3.86767">
        <ele>1304.317</ele>
        <time>2012-05-21T09:38:59Z</time>
      </trkpt>
      <trkpt lat="44.58512" lon="3.86736">
        <ele>1304.239</ele>
        <time>2012-05-21T09:39:18Z</time>
      </trkpt>
      <trkpt lat="44.58503" lon="3.86704">
        <ele>1303.938</ele>
        <time>2012-05-21T09:39:38Z</time>
      </trkpt>
      <trkpt lat="44.58491" lon="3.86663">
        <ele>1303.131</ele>
        <time>2012-05-21T09:40:03Z</time>
      </trkpt>
      <trkpt lat="44.58485" lon="3.86629">
        <ele>1302.35</ele>
        <time>2012-05-21T09:40:24Z</time>
      </trkpt>
      <trkpt lat="44.5849" lon="3.86595">
        <ele>1302.294</ele>
        <time>2012-05-21T09:40:45Z</time>
      </trkpt>
      <trkpt lat="44.585" lon="3.86567">
        <ele>1303.751</ele>
        <time>2012-05-21T09:41:04Z</time>
      </trkpt>
      <trkpt lat="44.58501" lon="3.86561">
        <ele>1303.848</ele>
        <time>2012-05-21T09:41:08Z</time>
      </trkpt>
      <trkpt lat="44.58504" lon="3.86555">
        <ele>1303.63</ele>
        <time>2012-05-21T09:41:12Z</time>
      </trkpt>
      <trkpt lat="44.58506" lon="3.86549">
        <ele>1303.05</ele>
        <time>2012-05-21T09:41:16Z</time>
      </trkpt>
      <trkpt lat="44.58517" lon="3.86514">
        <ele>1303.096</ele>
        <time>2012-05-21T09:41:39Z</time>
      </trkpt>
      <trkpt lat="44.58528" lon="3.86471">
        <ele>1302.217</ele>
        <time>2012-05-21T09:42:06Z</time>
      </trkpt>
      <trkpt lat="44.58537" lon="3.86436">
        <ele>1301.778</ele>
        <time>2012-05-21T09:42:27Z</time>
      </trkpt>
      <trkpt lat="44.58541" lon="3.86423">
        <ele>1301.373</ele>
        <time>2012-05-21T09:42:35Z</time>
      </trkpt>
      <trkpt lat="44.58543" lon="3.86408">
        <ele>1302.435</ele>
        <time>2012-05-21T09:42:45Z</time>
      </trkpt>
      <trkpt lat="44.58539" lon="3.86371">
        <ele>1302.626</ele>
        <time>2012-05-21T09:43:06Z</time>
      </trkpt>
      <trkpt lat="44.58536" lon="3.86335">
        <ele>1303.973</ele>
        <time>2012-05-21T09:43:28Z</time>
      </trkpt>
      <trkpt lat="44.58536" lon="3.86305">
        <ele>1304.921</ele>
        <time>2012-05-21T09:43:48Z</time>
      </trkpt>
      <trkpt lat="44.58538" lon="3.8627">
        <ele>1306.239</ele>
        <time>2012-05-21T09:44:09Z</time>
      </trkpt>
      <trkpt lat="44.58541" lon="3.86237">
        <ele>1306.701</ele>
        <time>2012-05-21T09:44:29Z</time>
      </trkpt>
      <trkpt lat="44.58539" lon="3.86216">
        <ele>1307.05</ele>
        <time>2012-05-21T09:47:06Z</time>
      </trkpt>
      <trkpt lat="44.58534" lon="3.86194">
        <ele>1307.192</ele>
        <time>2012-05-21T09:47:27Z</time>
      </trkpt>
      <trkpt lat="44.58534" lon="3.86177">
        <ele>1307.022</ele>
        <time>2012-05-21T09:47:42Z</time>
      </trkpt>
      <trkpt lat="44.58534" lon="3.86174">
        <ele>1306.435</ele>
        <time>2012-05-21T09:48:06Z</time>
      </trkpt>
      <trkpt lat="44.58532" lon="3.86172">
        <ele>1306.235</ele>
        <time>2012-05-21T09:48:08Z</time>
      </trkpt>
      <trkpt lat="44.58523" lon="3.86138">
        <ele>1305.501</ele>
        <time>2012-05-21T09:48:32Z</time>
      </trkpt>
      <trkpt lat="44.58521" lon="3.8613">
        <ele>1304.982</ele>
        <time>2012-05-21T09:48:47Z</time>
      </trkpt>
      <trkpt lat="44.58514" lon="3.86119">
        <ele>1304.582</ele>
        <time>2012-05-21T09:49:15Z</time>
      </trkpt>
      <trkpt lat="44.5851" lon="3.8611">
        <ele>1303.604</ele>
        <time>2012-05-21T09:49:22Z</time>
      </trkpt>
      <trkpt lat="44.58508" lon="3.86101">
        <ele>1303.097</ele>
        <time>2012-05-21T09:49:28Z</time>
      </trkpt>
      <trkpt lat="44.58495" lon="3.86073">
        <ele>1300.649</ele>
        <time>2012-05-21T09:49:50Z</time>
      </trkpt>
      <trkpt lat="44.58484" lon="3.86047">
        <ele>1299.373</ele>
        <time>2012-05-21T09:50:10Z</time>
      </trkpt>
      <trkpt lat="44.58473" lon="3.86024">
        <ele>1297.145</ele>
        <time>2012-05-21T09:50:29Z</time>
      </trkpt>
      <trkpt lat="44.58459" lon="3.86">
        <ele>1294.192</ele>
        <time>2012-05-21T09:50:51Z</time>
      </trkpt>
      <trkpt lat="44.58455" lon="3.85992">
        <ele>1293.33</ele>
        <time>2012-05-21T09:50:58Z</time>
      </trkpt>
      <trkpt lat="44.58448" lon="3.8598">
        <ele>1291.863</ele>
        <time>2012-05-21T09:51:08Z</time>
      </trkpt>
      <trkpt lat="44.58445" lon="3.85973">
        <ele>1291.69</ele>
        <time>2012-05-21T09:51:13Z</time>
      </trkpt>
      <trkpt lat="44.58438" lon="3.85947">
        <ele>1288.63</ele>
        <time>2012-05-21T09:51:32Z</time>
      </trkpt>
      <trkpt lat="44.58438" lon="3.85944">
        <ele>1288.516</ele>
        <time>2012-05-21T09:51:34Z</time>
      </trkpt>
      <trkpt lat="44.58436" lon="3.85936">
        <ele>1288.108</ele>
        <time>2012-05-21T09:51:39Z</time>
      </trkpt>
      <trkpt lat="44.58432" lon="3.85918">
        <ele>1285.736</ele>
        <time>2012-05-21T09:51:57Z</time>
      </trkpt>
      <trkpt lat="44.58427" lon="3.85889">
        <ele>1284.179</ele>
        <time>2012-05-21T09:52:15Z</time>
      </trkpt>
      <trkpt lat="44.58421" lon="3.85859">
        <ele>1282.707</ele>
        <time>2012-05-21T09:52:34Z</time>
      </trkpt>
      <trkpt lat="44.58416" lon="3.8585">
        <ele>1281.961</ele>
        <time>2012-05-21T09:52:41Z</time>
      </trkpt>
      <trkpt lat="44.58415" lon="3.85847">
        <ele>1282.099</ele>
        <time>2012-05-21T09:52:43Z</time>
      </trkpt>
      <trkpt lat="44.58404" lon="3.85822">
        <ele>1281.035</ele>
        <time>2012-05-21T09:53:00Z</time>
      </trkpt>
      <trkpt lat="44.584" lon="3.85815">
        <ele>1281.283</ele>
        <time>2012-05-21T09:53:05Z</time>
      </trkpt>
      <trkpt lat="44.58387" lon="3.85787">
        <ele>1280.712</ele>
        <time>2012-05-21T09:53:23Z</time>
      </trkpt>
      <trkpt lat="44.5838" lon="3.85769">
        <ele>1280.515</ele>
        <time>2012-05-21T09:53:35Z</time>
      </trkpt>
      <trkpt lat="44.58378" lon="3.85763">
        <ele>1280.912</ele>
        <time>2012-05-21T09:53:39Z</time>
      </trkpt>
      <trkpt lat="44.58376" lon="3.8576">
        <ele>1280.573</ele>
        <time>2012-05-21T09:53:42Z</time>
      </trkpt>
      <trkpt lat="44.58361" lon="3.85723">
        <ele>1281.791</ele>
        <time>2012-05-21T09:54:08Z</time>
      </trkpt>
      <trkpt lat="44.5834" lon="3.85706">
        <ele>1282.985</ele>
        <time>2012-05-21T09:54:29Z</time>
      </trkpt>
      <trkpt lat="44.58323" lon="3.85696">
        <ele>1284.572</ele>
        <time>2012-05-21T09:54:46Z</time>
      </trkpt>
      <trkpt lat="44.58302" lon="3.85677">
        <ele>1285.542</ele>
        <time>2012-05-21T09:55:07Z</time>
      </trkpt>
      <trkpt lat="44.5828" lon="3.85661">
        <ele>1286.233</ele>
        <time>2012-05-21T09:55:28Z</time>
      </trkpt>
      <trkpt lat="44.58261" lon="3.85652">
        <ele>1286.931</ele>
        <time>2012-05-21T09:55:46Z</time>
      </trkpt>
      <trkpt lat="44.58252" lon="3.85648">
        <ele>1286.909</ele>
        <time>2012-05-21T09:55:58Z</time>
      </trkpt>
      <trkpt lat="44.58244" lon="3.85633">
        <ele>1286.755</ele>
        <time>2012-05-21T09:56:10Z</time>
      </trkpt>
      <trkpt lat="44.58226" lon="3.85598">
        <ele>1287.082</ele>
        <time>2012-05-21T09:56:36Z</time>
      </trkpt>
      <trkpt lat="44.58211" lon="3.85567">
        <ele>1288.129</ele>
        <time>2012-05-21T09:57:00Z</time>
      </trkpt>
      <trkpt lat="44.58197" lon="3.85544">
        <ele>1288.781</ele>
        <time>2012-05-21T09:57:19Z</time>
      </trkpt>
      <trkpt lat="44.58184" lon="3.85512">
        <ele>1289.608</ele>
        <time>2012-05-21T09:57:42Z</time>
      </trkpt>
      <trkpt lat="44.58183" lon="3.85509">
        <ele>1289.653</ele>
        <time>2012-05-21T09:57:44Z</time>
      </trkpt>
      <trkpt lat="44.58179" lon="3.85495">
        <ele>1289.926</ele>
        <time>2012-05-21T09:57:54Z</time>
      </trkpt>
      <trkpt lat="44.58178" lon="3.85491">
        <ele>1290.021</ele>
        <time>2012-05-21T09:57:57Z</time>
      </trkpt>
      <trkpt lat="44.58167" lon="3.85465">
        <ele>1290.992</ele>
        <time>2012-05-21T09:58:15Z</time>
      </trkpt>
      <trkpt lat="44.58166" lon="3.85463">
        <ele>1290.521</ele>
        <time>2012-05-21T09:58:17Z</time>
      </trkpt>
      <trkpt lat="44.58163" lon="3.85454">
        <ele>1290.993</ele>
        <time>2012-05-21T09:58:23Z</time>
      </trkpt>
      <trkpt lat="44.58152" lon="3.8543">
        <ele>1291.264</ele>
        <time>2012-05-21T09:58:40Z</time>
      </trkpt>
      <trkpt lat="44.5814" lon="3.854">
        <ele>1292.026</ele>
        <time>2012-05-21T09:59:01Z</time>
      </trkpt>
      <trkpt lat="44.58124" lon="3.85361">
        <ele>1293.277</ele>
        <time>2012-05-21T09:59:31Z</time>
      </trkpt>
      <trkpt lat="44.58121" lon="3.85355">
        <ele>1293.248</ele>
        <time>2012-05-21T09:59:36Z</time>
      </trkpt>
      <trkpt lat="44.58118" lon="3.85349">
        <ele>1293.697</ele>
        <time>2012-05-21T09:59:40Z</time>
      </trkpt>
      <trkpt lat="44.58116" lon="3.85347">
        <ele>1293.604</ele>
        <time>2012-05-21T09:59:42Z</time>
      </trkpt>
      <trkpt lat="44.58115" lon="3.85342">
        <ele>1293.506</ele>
        <time>2012-05-21T09:59:45Z</time>
      </trkpt>
      <trkpt lat="44.58102" lon="3.85318">
        <ele>1294.793</ele>
        <time>2012-05-21T10:00:04Z</time>
      </trkpt>
      <trkpt lat="44.58094" lon="3.85298">
        <ele>1295.013</ele>
        <time>2012-05-21T10:00:18Z</time>
      </trkpt>
      <trkpt lat="44.58092" lon="3.85295">
        <ele>1294.77</ele>
        <time>2012-05-21T10:00:21Z</time>
      </trkpt>
      <trkpt lat="44.58088" lon="3.85284">
        <ele>1295.108</ele>
        <time>2012-05-21T10:00:29Z</time>
      </trkpt>
      <trkpt lat="44.58087" lon="3.85278">
        <ele>1295.344</ele>
        <time>2012-05-21T10:00:32Z</time>
      </trkpt>
      <trkpt lat="44.58086" lon="3.85276">
        <ele>1295.113</ele>
        <time>2012-05-21T10:00:34Z</time>
      </trkpt>
      <trkpt lat="44.58075" lon="3.85256">
        <ele>1295.658</ele>
        <time>2012-05-21T10:00:47Z</time>
      </trkpt>
      <trkpt lat="44.58072" lon="3.85244">
        <ele>1295.861</ele>
        <time>2012-05-21T10:00:54Z</time>
      </trkpt>
      <trkpt lat="44.5807" lon="3.85238">
        <ele>1295.947</ele>
        <time>2012-05-21T10:00:58Z</time>
      </trkpt>
      <trkpt lat="44.58068" lon="3.85229">
        <ele>1296.004</ele>
        <time>2012-05-21T10:01:03Z</time>
      </trkpt>
      <trkpt lat="44.58062" lon="3.85225">
        <ele>1295.829</ele>
        <time>2012-05-21T10:01:09Z</time>
      </trkpt>
      <trkpt lat="44.58059" lon="3.8521">
        <ele>1295.991</ele>
        <time>2012-05-21T10:01:18Z</time>
      </trkpt>
      <trkpt lat="44.58057" lon="3.85203">
        <ele>1296.26</ele>
        <time>2012-05-21T10:01:25Z</time>
      </trkpt>
      <trkpt lat="44.58049" lon="3.85186">
        <ele>1296.104</ele>
        <time>2012-05-21T10:01:38Z</time>
      </trkpt>
      <trkpt lat="44.58046" lon="3.85177">
        <ele>1295.968</ele>
        <time>2012-05-21T10:01:44Z</time>
      </trkpt>
      <trkpt lat="44.58044" lon="3.85171">
        <ele>1296.013</ele>
        <time>2012-05-21T10:01:48Z</time>
      </trkpt>
      <trkpt lat="44.58044" lon="3.85165">
        <ele>1296.177</ele>
        <time>2012-05-21T10:01:51Z</time>
      </trkpt>
      <trkpt lat="44.58044" lon="3.85158">
        <ele>1296.589</ele>
        <time>2012-05-21T10:01:56Z</time>
      </trkpt>
      <trkpt lat="44.58043" lon="3.85155">
        <ele>1295.999</ele>
        <time>2012-05-21T10:01:58Z</time>
      </trkpt>
      <trkpt lat="44.58043" lon="3.85151">
        <ele>1296.385</ele>
        <time>2012-05-21T10:02:01Z</time>
      </trkpt>
      <trkpt lat="44.5804" lon="3.85142">
        <ele>1296.358</ele>
        <time>2012-05-21T10:02:06Z</time>
      </trkpt>
      <trkpt lat="44.58039" lon="3.85131">
        <ele>1296.153</ele>
        <time>2012-05-21T10:02:12Z</time>
      </trkpt>
      <trkpt lat="44.58038" lon="3.85124">
        <ele>1296.291</ele>
        <time>2012-05-21T10:02:17Z</time>
      </trkpt>
      <trkpt lat="44.58039" lon="3.8512">
        <ele>1296.421</ele>
        <time>2012-05-21T10:02:19Z</time>
      </trkpt>
      <trkpt lat="44.5804" lon="3.85116">
        <ele>1296.383</ele>
        <time>2012-05-21T10:02:22Z</time>
      </trkpt>
      <trkpt lat="44.5804" lon="3.85113">
        <ele>1296.202</ele>
        <time>2012-05-21T10:02:24Z</time>
      </trkpt>
      <trkpt lat="44.58035" lon="3.851">
        <ele>1296.301</ele>
        <time>2012-05-21T10:02:34Z</time>
      </trkpt>
      <trkpt lat="44.58028" lon="3.85084">
        <ele>1295.722</ele>
        <time>2012-05-21T10:03:28Z</time>
      </trkpt>
      <trkpt lat="44.58026" lon="3.8507">
        <ele>1296.261</ele>
        <time>2012-05-21T10:03:37Z</time>
      </trkpt>
      <trkpt lat="44.58023" lon="3.85059">
        <ele>1296.75</ele>
        <time>2012-05-21T10:03:44Z</time>
      </trkpt>
      <trkpt lat="44.58022" lon="3.8504">
        <ele>1296.603</ele>
        <time>2012-05-21T10:03:55Z</time>
      </trkpt>
      <trkpt lat="44.58016" lon="3.85015">
        <ele>1296.729</ele>
        <time>2012-05-21T10:04:11Z</time>
      </trkpt>
      <trkpt lat="44.58016" lon="3.85007">
        <ele>1296.778</ele>
        <time>2012-05-21T10:04:16Z</time>
      </trkpt>
      <trkpt lat="44.58015" lon="3.85002">
        <ele>1296.836</ele>
        <time>2012-05-21T10:04:19Z</time>
      </trkpt>
      <trkpt lat="44.58013" lon="3.8499">
        <ele>1296.711</ele>
        <time>2012-05-21T10:04:26Z</time>
      </trkpt>
      <trkpt lat="44.58012" lon="3.84986">
        <ele>1296.807</ele>
        <time>2012-05-21T10:04:29Z</time>
      </trkpt>
      <trkpt lat="44.58011" lon="3.84977">
        <ele>1296.822</ele>
        <time>2012-05-21T10:04:34Z</time>
      </trkpt>
      <trkpt lat="44.5801" lon="3.84966">
        <ele>1297.027</ele>
        <time>2012-05-21T10:04:40Z</time>
      </trkpt>
      <trkpt lat="44.58011" lon="3.84958">
        <ele>1296.314</ele>
        <time>2012-05-21T10:04:45Z</time>
      </trkpt>
      <trkpt lat="44.5801" lon="3.84945">
        <ele>1295.896</ele>
        <time>2012-05-21T10:04:52Z</time>
      </trkpt>
      <trkpt lat="44.58009" lon="3.84933">
        <ele>1296.272</ele>
        <time>2012-05-21T10:04:58Z</time>
      </trkpt>
      <trkpt lat="44.58009" lon="3.84925">
        <ele>1296.226</ele>
        <time>2012-05-21T10:05:02Z</time>
      </trkpt>
      <trkpt lat="44.58005" lon="3.8489">
        <ele>1296.418</ele>
        <time>2012-05-21T10:05:22Z</time>
      </trkpt>
      <trkpt lat="44.58003" lon="3.84878">
        <ele>1295.7</ele>
        <time>2012-05-21T10:05:29Z</time>
      </trkpt>
      <trkpt lat="44.58004" lon="3.84874">
        <ele>1295.565</ele>
        <time>2012-05-21T10:05:31Z</time>
      </trkpt>
      <trkpt lat="44.58001" lon="3.84862">
        <ele>1296.4</ele>
        <time>2012-05-21T10:05:39Z</time>
      </trkpt>
      <trkpt lat="44.57988" lon="3.84844">
        <ele>1296.572</ele>
        <time>2012-05-21T10:05:53Z</time>
      </trkpt>
      <trkpt lat="44.57983" lon="3.84837">
        <ele>1297.133</ele>
        <time>2012-05-21T10:05:58Z</time>
      </trkpt>
      <trkpt lat="44.57978" lon="3.84831">
        <ele>1296.845</ele>
        <time>2012-05-21T10:06:03Z</time>
      </trkpt>
      <trkpt lat="44.57974" lon="3.84827">
        <ele>1297.416</ele>
        <time>2012-05-21T10:06:08Z</time>
      </trkpt>
      <trkpt lat="44.57968" lon="3.84815">
        <ele>1297.968</ele>
        <time>2012-05-21T10:06:17Z</time>
      </trkpt>
      <trkpt lat="44.57965" lon="3.84809">
        <ele>1298.197</ele>
        <time>2012-05-21T10:06:21Z</time>
      </trkpt>
      <trkpt lat="44.57958" lon="3.84804">
        <ele>1298.118</ele>
        <time>2012-05-21T10:06:27Z</time>
      </trkpt>
      <trkpt lat="44.57946" lon="3.84783">
        <ele>1299.07</ele>
        <time>2012-05-21T10:06:44Z</time>
      </trkpt>
      <trkpt lat="44.57941" lon="3.84781">
        <ele>1298.557</ele>
        <time>2012-05-21T10:08:24Z</time>
      </trkpt>
      <trkpt lat="44.5794" lon="3.8478">
        <ele>1298.611</ele>
        <time>2012-05-21T10:08:50Z</time>
      </trkpt>
      <trkpt lat="44.57936" lon="3.84777">
        <ele>1298.309</ele>
        <time>2012-05-21T10:08:54Z</time>
      </trkpt>
      <trkpt lat="44.57931" lon="3.84777">
        <ele>1298.016</ele>
        <time>2012-05-21T10:08:59Z</time>
      </trkpt>
      <trkpt lat="44.57925" lon="3.84772">
        <ele>1297.694</ele>
        <time>2012-05-21T10:09:04Z</time>
      </trkpt>
      <trkpt lat="44.57919" lon="3.84765">
        <ele>1297.316</ele>
        <time>2012-05-21T10:09:10Z</time>
      </trkpt>
      <trkpt lat="44.57914" lon="3.84746">
        <ele>1298.156</ele>
        <time>2012-05-21T10:09:41Z</time>
      </trkpt>
      <trkpt lat="44.57924" lon="3.84719">
        <ele>1298.197</ele>
        <time>2012-05-21T10:10:02Z</time>
      </trkpt>
      <trkpt lat="44.57938" lon="3.84691">
        <ele>1300.054</ele>
        <time>2012-05-21T10:10:24Z</time>
      </trkpt>
      <trkpt lat="44.57954" lon="3.84666">
        <ele>1300.708</ele>
        <time>2012-05-21T10:10:45Z</time>
      </trkpt>
      <trkpt lat="44.5796" lon="3.8465">
        <ele>1302.555</ele>
        <time>2012-05-21T10:13:26Z</time>
      </trkpt>
      <trkpt lat="44.57977" lon="3.84627">
        <ele>1302.825</ele>
        <time>2012-05-21T10:13:45Z</time>
      </trkpt>
      <trkpt lat="44.5798" lon="3.84616">
        <ele>1303.471</ele>
        <time>2012-05-21T10:13:52Z</time>
      </trkpt>
      <trkpt lat="44.57978" lon="3.84591">
        <ele>1304.851</ele>
        <time>2012-05-21T10:14:06Z</time>
      </trkpt>
      <trkpt lat="44.57973" lon="3.84567">
        <ele>1306.277</ele>
        <time>2012-05-21T10:14:21Z</time>
      </trkpt>
      <trkpt lat="44.5797" lon="3.84558">
        <ele>1306.571</ele>
        <time>2012-05-21T10:14:28Z</time>
      </trkpt>
      <trkpt lat="44.57971" lon="3.84549">
        <ele>1307.674</ele>
        <time>2012-05-21T10:14:44Z</time>
      </trkpt>
      <trkpt lat="44.57966" lon="3.84531">
        <ele>1308.33</ele>
        <time>2012-05-21T10:15:11Z</time>
      </trkpt>
      <trkpt lat="44.57967" lon="3.84524">
        <ele>1308.538</ele>
        <time>2012-05-21T10:15:15Z</time>
      </trkpt>
      <trkpt lat="44.57973" lon="3.8451">
        <ele>1309.691</ele>
        <time>2012-05-21T10:15:26Z</time>
      </trkpt>
      <trkpt lat="44.57984" lon="3.84486">
        <ele>1311.215</ele>
        <time>2012-05-21T10:15:45Z</time>
      </trkpt>
      <trkpt lat="44.57995" lon="3.84477">
        <ele>1310.793</ele>
        <time>2012-05-21T10:16:07Z</time>
      </trkpt>
      <trkpt lat="44.5801" lon="3.84458">
        <ele>1311.669</ele>
        <time>2012-05-21T10:16:25Z</time>
      </trkpt>
      <trkpt lat="44.58016" lon="3.84457">
        <ele>1312.13</ele>
        <time>2012-05-21T10:16:40Z</time>
      </trkpt>
      <trkpt lat="44.58017" lon="3.84458">
        <ele>1312.325</ele>
        <time>2012-05-21T10:16:52Z</time>
      </trkpt>
      <trkpt lat="44.58021" lon="3.84468">
        <ele>1312.152</ele>
        <time>2012-05-21T10:16:59Z</time>
      </trkpt>
      <trkpt lat="44.58021" lon="3.84476">
        <ele>1312.206</ele>
        <time>2012-05-21T10:17:04Z</time>
      </trkpt>
      <trkpt lat="44.58023" lon="3.84481">
        <ele>1311.603</ele>
        <time>2012-05-21T10:17:08Z</time>
      </trkpt>
      <trkpt lat="44.58025" lon="3.84488">
        <ele>1311.22</ele>
        <time>2012-05-21T10:17:12Z</time>
      </trkpt>
      <trkpt lat="44.5802" lon="3.84496">
        <ele>1310.565</ele>
        <time>2012-05-21T10:17:18Z</time>
      </trkpt>
      <trkpt lat="44.58016" lon="3.84506">
        <ele>1310.325</ele>
        <time>2012-05-21T10:17:25Z</time>
      </trkpt>
      <trkpt lat="44.58009" lon="3.84513">
        <ele>1310.089</ele>
        <time>2012-05-21T10:17:31Z</time>
      </trkpt>
      <trkpt lat="44.58001" lon="3.84541">
        <ele>1307.612</ele>
        <time>2012-05-21T10:17:54Z</time>
      </trkpt>
      <trkpt lat="44.57996" lon="3.84562">
        <ele>1307.161</ele>
        <time>2012-05-21T10:18:13Z</time>
      </trkpt>
      <trkpt lat="44.57993" lon="3.84578">
        <ele>1306.162</ele>
        <time>2012-05-21T10:18:22Z</time>
      </trkpt>
      <trkpt lat="44.57986" lon="3.84604">
        <ele>1305.162</ele>
        <time>2012-05-21T10:18:39Z</time>
      </trkpt>
      <trkpt lat="44.57985" lon="3.84607">
        <ele>1305.228</ele>
        <time>2012-05-21T10:18:41Z</time>
      </trkpt>
      <trkpt lat="44.57979" lon="3.84622">
        <ele>1304.276</ele>
        <time>2012-05-21T10:19:03Z</time>
      </trkpt>
      <trkpt lat="44.57969" lon="3.84638">
        <ele>1303.118</ele>
        <time>2012-05-21T10:19:17Z</time>
      </trkpt>
      <trkpt lat="44.57966" lon="3.84643">
        <ele>1302.605</ele>
        <time>2012-05-21T10:19:21Z</time>
      </trkpt>
      <trkpt lat="44.57963" lon="3.84647">
        <ele>1302.51</ele>
        <time>2012-05-21T10:19:24Z</time>
      </trkpt>
      <trkpt lat="44.5796" lon="3.84653">
        <ele>1302.533</ele>
        <time>2012-05-21T10:19:28Z</time>
      </trkpt>
      <trkpt lat="44.57958" lon="3.84657">
        <ele>1302.466</ele>
        <time>2012-05-21T10:19:31Z</time>
      </trkpt>
      <trkpt lat="44.57949" lon="3.84671">
        <ele>1301.997</ele>
        <time>2012-05-21T10:19:42Z</time>
      </trkpt>
      <trkpt lat="44.57946" lon="3.84676">
        <ele>1301.804</ele>
        <time>2012-05-21T10:20:37Z</time>
      </trkpt>
      <trkpt lat="44.57943" lon="3.84683">
        <ele>1300.986</ele>
        <time>2012-05-21T10:20:43Z</time>
      </trkpt>
      <trkpt lat="44.57932" lon="3.84706">
        <ele>1299.854</ele>
        <time>2012-05-21T10:20:59Z</time>
      </trkpt>
      <trkpt lat="44.5793" lon="3.84711">
        <ele>1299.69</ele>
        <time>2012-05-21T10:21:04Z</time>
      </trkpt>
      <trkpt lat="44.57924" lon="3.84728">
        <ele>1298.949</ele>
        <time>2012-05-21T10:21:14Z</time>
      </trkpt>
      <trkpt lat="44.57916" lon="3.84747">
        <ele>1298.016</ele>
        <time>2012-05-21T10:21:27Z</time>
      </trkpt>
      <trkpt lat="44.57912" lon="3.84751">
        <ele>1297.675</ele>
        <time>2012-05-21T10:21:41Z</time>
      </trkpt>
      <trkpt lat="44.57907" lon="3.84756">
        <ele>1297.675</ele>
        <time>2012-05-21T10:22:00Z</time>
      </trkpt>
      <trkpt lat="44.57893" lon="3.84773">
        <ele>1296.871</ele>
        <time>2012-05-21T10:22:15Z</time>
      </trkpt>
      <trkpt lat="44.5789" lon="3.84779">
        <ele>1296.402</ele>
        <time>2012-05-21T10:22:20Z</time>
      </trkpt>
      <trkpt lat="44.57876" lon="3.84802">
        <ele>1295.804</ele>
        <time>2012-05-21T10:22:37Z</time>
      </trkpt>
      <trkpt lat="44.57867" lon="3.84815">
        <ele>1294.405</ele>
        <time>2012-05-21T10:22:48Z</time>
      </trkpt>
      <trkpt lat="44.57864" lon="3.84819">
        <ele>1293.825</ele>
        <time>2012-05-21T10:22:52Z</time>
      </trkpt>
      <trkpt lat="44.57859" lon="3.84825">
        <ele>1294.221</ele>
        <time>2012-05-21T10:22:57Z</time>
      </trkpt>
      <trkpt lat="44.57851" lon="3.84841">
        <ele>1292.498</ele>
        <time>2012-05-21T10:23:10Z</time>
      </trkpt>
      <trkpt lat="44.57834" lon="3.8485">
        <ele>1291.534</ele>
        <time>2012-05-21T10:23:28Z</time>
      </trkpt>
      <trkpt lat="44.5781" lon="3.84855">
        <ele>1289.297</ele>
        <time>2012-05-21T10:23:49Z</time>
      </trkpt>
      <trkpt lat="44.57804" lon="3.84856">
        <ele>1289.497</ele>
        <time>2012-05-21T10:23:54Z</time>
      </trkpt>
      <trkpt lat="44.57802" lon="3.84856">
        <ele>1289.039</ele>
        <time>2012-05-21T10:23:56Z</time>
      </trkpt>
      <trkpt lat="44.57792" lon="3.84859">
        <ele>1287.656</ele>
        <time>2012-05-21T10:24:04Z</time>
      </trkpt>
      <trkpt lat="44.57791" lon="3.8486">
        <ele>1287.065</ele>
        <time>2012-05-21T10:24:06Z</time>
      </trkpt>
      <trkpt lat="44.57786" lon="3.8486">
        <ele>1286.535</ele>
        <time>2012-05-21T10:24:10Z</time>
      </trkpt>
      <trkpt lat="44.5778" lon="3.84861">
        <ele>1287.072</ele>
        <time>2012-05-21T10:24:14Z</time>
      </trkpt>
      <trkpt lat="44.57766" lon="3.84863">
        <ele>1285.703</ele>
        <time>2012-05-21T10:24:26Z</time>
      </trkpt>
      <trkpt lat="44.57762" lon="3.84865">
        <ele>1285.223</ele>
        <time>2012-05-21T10:24:29Z</time>
      </trkpt>
      <trkpt lat="44.57748" lon="3.8487">
        <ele>1283.877</ele>
        <time>2012-05-21T10:24:42Z</time>
      </trkpt>
      <trkpt lat="44.57723" lon="3.84873">
        <ele>1281.965</ele>
        <time>2012-05-21T10:25:02Z</time>
      </trkpt>
      <trkpt lat="44.57709" lon="3.84877">
        <ele>1280.039</ele>
        <time>2012-05-21T10:25:15Z</time>
      </trkpt>
      <trkpt lat="44.57699" lon="3.84882">
        <ele>1279.224</ele>
        <time>2012-05-21T10:25:24Z</time>
      </trkpt>
      <trkpt lat="44.5769" lon="3.84885">
        <ele>1278.118</ele>
        <time>2012-05-21T10:25:31Z</time>
      </trkpt>
      <trkpt lat="44.57686" lon="3.84885">
        <ele>1277.84</ele>
        <time>2012-05-21T10:25:34Z</time>
      </trkpt>
      <trkpt lat="44.57682" lon="3.84888">
        <ele>1277.521</ele>
        <time>2012-05-21T10:25:38Z</time>
      </trkpt>
      <trkpt lat="44.57671" lon="3.84892">
        <ele>1276.894</ele>
        <time>2012-05-21T10:25:49Z</time>
      </trkpt>
      <trkpt lat="44.57666" lon="3.84894">
        <ele>1275.885</ele>
        <time>2012-05-21T10:25:53Z</time>
      </trkpt>
      <trkpt lat="44.57647" lon="3.84896">
        <ele>1273.982</ele>
        <time>2012-05-21T10:26:08Z</time>
      </trkpt>
      <trkpt lat="44.57638" lon="3.84896">
        <ele>1273.156</ele>
        <time>2012-05-21T10:26:16Z</time>
      </trkpt>
      <trkpt lat="44.57622" lon="3.84896">
        <ele>1271.032</ele>
        <time>2012-05-21T10:26:30Z</time>
      </trkpt>
      <trkpt lat="44.5761" lon="3.84895">
        <ele>1269.918</ele>
        <time>2012-05-21T10:26:42Z</time>
      </trkpt>
      <trkpt lat="44.57605" lon="3.84896">
        <ele>1269.205</ele>
        <time>2012-05-21T10:26:46Z</time>
      </trkpt>
      <trkpt lat="44.57599" lon="3.84899">
        <ele>1268.997</ele>
        <time>2012-05-21T10:26:51Z</time>
      </trkpt>
      <trkpt lat="44.57594" lon="3.849">
        <ele>1268.239</ele>
        <time>2012-05-21T10:26:55Z</time>
      </trkpt>
      <trkpt lat="44.57579" lon="3.84906">
        <ele>1266.493</ele>
        <time>2012-05-21T10:27:08Z</time>
      </trkpt>
      <trkpt lat="44.57565" lon="3.84911">
        <ele>1265.311</ele>
        <time>2012-05-21T10:27:19Z</time>
      </trkpt>
      <trkpt lat="44.57556" lon="3.84913">
        <ele>1265.131</ele>
        <time>2012-05-21T10:27:26Z</time>
      </trkpt>
      <trkpt lat="44.57547" lon="3.84916">
        <ele>1263.581</ele>
        <time>2012-05-21T10:27:34Z</time>
      </trkpt>
      <trkpt lat="44.57536" lon="3.84921">
        <ele>1263.103</ele>
        <time>2012-05-21T10:27:43Z</time>
      </trkpt>
      <trkpt lat="44.57533" lon="3.84922">
        <ele>1262.27</ele>
        <time>2012-05-21T10:27:47Z</time>
      </trkpt>
      <trkpt lat="44.57515" lon="3.84928">
        <ele>1260.377</ele>
        <time>2012-05-21T10:28:04Z</time>
      </trkpt>
      <trkpt lat="44.57491" lon="3.84932">
        <ele>1257.968</ele>
        <time>2012-05-21T10:28:24Z</time>
      </trkpt>
      <trkpt lat="44.57474" lon="3.84936">
        <ele>1256.662</ele>
        <time>2012-05-21T10:28:39Z</time>
      </trkpt>
      <trkpt lat="44.5746" lon="3.84938">
        <ele>1255.116</ele>
        <time>2012-05-21T10:28:51Z</time>
      </trkpt>
      <trkpt lat="44.57439" lon="3.84948">
        <ele>1252.95</ele>
        <time>2012-05-21T10:29:10Z</time>
      </trkpt>
      <trkpt lat="44.57426" lon="3.84956">
        <ele>1251.607</ele>
        <time>2012-05-21T10:29:23Z</time>
      </trkpt>
      <trkpt lat="44.57417" lon="3.84961">
        <ele>1249.93</ele>
        <time>2012-05-21T10:29:31Z</time>
      </trkpt>
      <trkpt lat="44.5739" lon="3.84965">
        <ele>1247.228</ele>
        <time>2012-05-21T10:29:54Z</time>
      </trkpt>
      <trkpt lat="44.57364" lon="3.84965">
        <ele>1245.812</ele>
        <time>2012-05-21T10:30:15Z</time>
      </trkpt>
      <trkpt lat="44.57342" lon="3.84963">
        <ele>1244.121</ele>
        <time>2012-05-21T10:30:36Z</time>
      </trkpt>
      <trkpt lat="44.57316" lon="3.84959">
        <ele>1241.12</ele>
        <time>2012-05-21T10:30:58Z</time>
      </trkpt>
      <trkpt lat="44.57294" lon="3.8495">
        <ele>1238.399</ele>
        <time>2012-05-21T10:31:17Z</time>
      </trkpt>
      <trkpt lat="44.57272" lon="3.84936">
        <ele>1235.656</ele>
        <time>2012-05-21T10:31:41Z</time>
      </trkpt>
      <trkpt lat="44.57252" lon="3.84915">
        <ele>1233.163</ele>
        <time>2012-05-21T10:32:03Z</time>
      </trkpt>
      <trkpt lat="44.57236" lon="3.84898">
        <ele>1231.277</ele>
        <time>2012-05-21T10:32:21Z</time>
      </trkpt>
      <trkpt lat="44.57226" lon="3.8489">
        <ele>1229.932</ele>
        <time>2012-05-21T10:32:29Z</time>
      </trkpt>
      <trkpt lat="44.57212" lon="3.84872">
        <ele>1228.073</ele>
        <time>2012-05-21T10:32:45Z</time>
      </trkpt>
      <trkpt lat="44.57208" lon="3.84868">
        <ele>1227.109</ele>
        <time>2012-05-21T10:32:50Z</time>
      </trkpt>
      <trkpt lat="44.57207" lon="3.84864">
        <ele>1227.415</ele>
        <time>2012-05-21T10:32:53Z</time>
      </trkpt>
      <trkpt lat="44.57204" lon="3.84859">
        <ele>1226.311</ele>
        <time>2012-05-21T10:32:57Z</time>
      </trkpt>
      <trkpt lat="44.57201" lon="3.84856">
        <ele>1225.296</ele>
        <time>2012-05-21T10:33:00Z</time>
      </trkpt>
      <trkpt lat="44.57199" lon="3.84852">
        <ele>1224.673</ele>
        <time>2012-05-21T10:33:04Z</time>
      </trkpt>
      <trkpt lat="44.57197" lon="3.84848">
        <ele>1224.232</ele>
        <time>2012-05-21T10:33:07Z</time>
      </trkpt>
      <trkpt lat="44.57181" lon="3.84831">
        <ele>1222.631</ele>
        <time>2012-05-21T10:33:23Z</time>
      </trkpt>
      <trkpt lat="44.57178" lon="3.84827">
        <ele>1222.191</ele>
        <time>2012-05-21T10:33:26Z</time>
      </trkpt>
      <trkpt lat="44.57175" lon="3.84825">
        <ele>1222.057</ele>
        <time>2012-05-21T10:33:29Z</time>
      </trkpt>
      <trkpt lat="44.57159" lon="3.84809">
        <ele>1220.269</ele>
        <time>2012-05-21T10:33:45Z</time>
      </trkpt>
      <trkpt lat="44.57156" lon="3.84805">
        <ele>1219.616</ele>
        <time>2012-05-21T10:33:49Z</time>
      </trkpt>
      <trkpt lat="44.57139" lon="3.84784">
        <ele>1217.145</ele>
        <time>2012-05-21T10:34:07Z</time>
      </trkpt>
      <trkpt lat="44.57122" lon="3.84768">
        <ele>1214.981</ele>
        <time>2012-05-21T10:34:24Z</time>
      </trkpt>
      <trkpt lat="44.57112" lon="3.84762">
        <ele>1214.481</ele>
        <time>2012-05-21T10:34:34Z</time>
      </trkpt>
      <trkpt lat="44.57093" lon="3.84756">
        <ele>1212.329</ele>
        <time>2012-05-21T10:34:50Z</time>
      </trkpt>
      <trkpt lat="44.57076" lon="3.84751">
        <ele>1210.528</ele>
        <time>2012-05-21T10:35:04Z</time>
      </trkpt>
      <trkpt lat="44.57071" lon="3.84751">
        <ele>1210.573</ele>
        <time>2012-05-21T10:35:08Z</time>
      </trkpt>
      <trkpt lat="44.57061" lon="3.8475">
        <ele>1209.624</ele>
        <time>2012-05-21T10:35:15Z</time>
      </trkpt>
      <trkpt lat="44.57054" lon="3.8475">
        <ele>1208.454</ele>
        <time>2012-05-21T10:35:23Z</time>
      </trkpt>
      <trkpt lat="44.5704" lon="3.84749">
        <ele>1207.44</ele>
        <time>2012-05-21T10:35:34Z</time>
      </trkpt>
      <trkpt lat="44.57034" lon="3.84749">
        <ele>1206.476</ele>
        <time>2012-05-21T10:35:39Z</time>
      </trkpt>
      <trkpt lat="44.57032" lon="3.84747">
        <ele>1206.447</ele>
        <time>2012-05-21T10:35:41Z</time>
      </trkpt>
      <trkpt lat="44.57008" lon="3.84744">
        <ele>1204.159</ele>
        <time>2012-05-21T10:36:00Z</time>
      </trkpt>
      <trkpt lat="44.56988" lon="3.84731">
        <ele>1201.795</ele>
        <time>2012-05-21T10:36:17Z</time>
      </trkpt>
      <trkpt lat="44.56968" lon="3.8472">
        <ele>1199.757</ele>
        <time>2012-05-21T10:36:36Z</time>
      </trkpt>
      <trkpt lat="44.56954" lon="3.84714">
        <ele>1197.992</ele>
        <time>2012-05-21T10:36:48Z</time>
      </trkpt>
      <trkpt lat="44.56938" lon="3.84705">
        <ele>1196.487</ele>
        <time>2012-05-21T10:37:02Z</time>
      </trkpt>
      <trkpt lat="44.56933" lon="3.847">
        <ele>1196.279</ele>
        <time>2012-05-21T10:37:06Z</time>
      </trkpt>
      <trkpt lat="44.56911" lon="3.84687">
        <ele>1193.534</ele>
        <time>2012-05-21T10:37:26Z</time>
      </trkpt>
      <trkpt lat="44.56908" lon="3.84686">
        <ele>1193.626</ele>
        <time>2012-05-21T10:37:28Z</time>
      </trkpt>
      <trkpt lat="44.56889" lon="3.84671">
        <ele>1191.316</ele>
        <time>2012-05-21T10:37:45Z</time>
      </trkpt>
      <trkpt lat="44.56874" lon="3.84663">
        <ele>1190.136</ele>
        <time>2012-05-21T10:37:57Z</time>
      </trkpt>
      <trkpt lat="44.56853" lon="3.84657">
        <ele>1187.585</ele>
        <time>2012-05-21T10:38:13Z</time>
      </trkpt>
      <trkpt lat="44.56844" lon="3.84656">
        <ele>1187.026</ele>
        <time>2012-05-21T10:38:19Z</time>
      </trkpt>
      <trkpt lat="44.56834" lon="3.8465">
        <ele>1186.944</ele>
        <time>2012-05-21T10:38:28Z</time>
      </trkpt>
      <trkpt lat="44.56823" lon="3.84647">
        <ele>1185.688</ele>
        <time>2012-05-21T10:38:37Z</time>
      </trkpt>
      <trkpt lat="44.56815" lon="3.84644">
        <ele>1185.267</ele>
        <time>2012-05-21T10:38:43Z</time>
      </trkpt>
      <trkpt lat="44.56807" lon="3.84642">
        <ele>1185.189</ele>
        <time>2012-05-21T10:38:49Z</time>
      </trkpt>
      <trkpt lat="44.56788" lon="3.84642">
        <ele>1183.033</ele>
        <time>2012-05-21T10:39:04Z</time>
      </trkpt>
      <trkpt lat="44.56786" lon="3.84643">
        <ele>1182.652</ele>
        <time>2012-05-21T10:39:06Z</time>
      </trkpt>
      <trkpt lat="44.56782" lon="3.84643">
        <ele>1182.34</ele>
        <time>2012-05-21T10:39:10Z</time>
      </trkpt>
      <trkpt lat="44.56767" lon="3.84645">
        <ele>1180.764</ele>
        <time>2012-05-21T10:39:23Z</time>
      </trkpt>
      <trkpt lat="44.56758" lon="3.84648">
        <ele>1179.691</ele>
        <time>2012-05-21T10:39:31Z</time>
      </trkpt>
      <trkpt lat="44.56754" lon="3.84649">
        <ele>1179.195</ele>
        <time>2012-05-21T10:39:34Z</time>
      </trkpt>
      <trkpt lat="44.56747" lon="3.84651">
        <ele>1179.113</ele>
        <time>2012-05-21T10:39:39Z</time>
      </trkpt>
      <trkpt lat="44.56735" lon="3.84658">
        <ele>1176.884</ele>
        <time>2012-05-21T10:39:51Z</time>
      </trkpt>
      <trkpt lat="44.56732" lon="3.84661">
        <ele>1176.566</ele>
        <time>2012-05-21T10:39:54Z</time>
      </trkpt>
      <trkpt lat="44.56718" lon="3.84666">
        <ele>1174.99</ele>
        <time>2012-05-21T10:40:04Z</time>
      </trkpt>
      <trkpt lat="44.56709" lon="3.84671">
        <ele>1173.732</ele>
        <time>2012-05-21T10:40:11Z</time>
      </trkpt>
      <trkpt lat="44.56704" lon="3.84676">
        <ele>1173.535</ele>
        <time>2012-05-21T10:40:16Z</time>
      </trkpt>
      <trkpt lat="44.56698" lon="3.8468">
        <ele>1173.489</ele>
        <time>2012-05-21T10:40:21Z</time>
      </trkpt>
      <trkpt lat="44.56694" lon="3.84683">
        <ele>1172.464</ele>
        <time>2012-05-21T10:40:25Z</time>
      </trkpt>
      <trkpt lat="44.56685" lon="3.84692">
        <ele>1170.984</ele>
        <time>2012-05-21T10:40:47Z</time>
      </trkpt>
      <trkpt lat="44.56678" lon="3.847">
        <ele>1170.688</ele>
        <time>2012-05-21T10:41:17Z</time>
      </trkpt>
      <trkpt lat="44.5666" lon="3.84722">
        <ele>1167.318</ele>
        <time>2012-05-21T10:41:36Z</time>
      </trkpt>
      <trkpt lat="44.56658" lon="3.84725">
        <ele>1169.231</ele>
        <time>2012-05-21T10:41:38Z</time>
      </trkpt>
      <trkpt lat="44.56644" lon="3.84746">
        <ele>1165.698</ele>
        <time>2012-05-21T10:41:54Z</time>
      </trkpt>
      <trkpt lat="44.56628" lon="3.84769">
        <ele>1163.296</ele>
        <time>2012-05-21T10:42:12Z</time>
      </trkpt>
      <trkpt lat="44.56612" lon="3.84794">
        <ele>1160.83</ele>
        <time>2012-05-21T10:42:32Z</time>
      </trkpt>
      <trkpt lat="44.56587" lon="3.84823">
        <ele>1158.12</ele>
        <time>2012-05-21T10:42:58Z</time>
      </trkpt>
      <trkpt lat="44.56564" lon="3.84841">
        <ele>1155.089</ele>
        <time>2012-05-21T10:43:18Z</time>
      </trkpt>
      <trkpt lat="44.56561" lon="3.84847">
        <ele>1154.924</ele>
        <time>2012-05-21T10:43:23Z</time>
      </trkpt>
      <trkpt lat="44.56555" lon="3.84854">
        <ele>1154.412</ele>
        <time>2012-05-21T10:43:30Z</time>
      </trkpt>
      <trkpt lat="44.56553" lon="3.84856">
        <ele>1153.88</ele>
        <time>2012-05-21T10:43:32Z</time>
      </trkpt>
      <trkpt lat="44.56543" lon="3.84874">
        <ele>1152.377</ele>
        <time>2012-05-21T10:43:46Z</time>
      </trkpt>
      <trkpt lat="44.56529" lon="3.84905">
        <ele>1150.907</ele>
        <time>2012-05-21T10:44:07Z</time>
      </trkpt>
      <trkpt lat="44.56526" lon="3.8491">
        <ele>1150.72</ele>
        <time>2012-05-21T10:44:14Z</time>
      </trkpt>
      <trkpt lat="44.56524" lon="3.84912">
        <ele>1150.227</ele>
        <time>2012-05-21T10:44:16Z</time>
      </trkpt>
      <trkpt lat="44.56522" lon="3.84919">
        <ele>1150.722</ele>
        <time>2012-05-21T10:44:20Z</time>
      </trkpt>
      <trkpt lat="44.5652" lon="3.84931">
        <ele>1151.042</ele>
        <time>2012-05-21T10:44:28Z</time>
      </trkpt>
      <trkpt lat="44.56515" lon="3.8497">
        <ele>1149.97</ele>
        <time>2012-05-21T10:44:51Z</time>
      </trkpt>
      <trkpt lat="44.56522" lon="3.85012">
        <ele>1148.494</ele>
        <time>2012-05-21T10:45:15Z</time>
      </trkpt>
      <trkpt lat="44.56539" lon="3.85049">
        <ele>1146.599</ele>
        <time>2012-05-21T10:45:39Z</time>
      </trkpt>
      <trkpt lat="44.56539" lon="3.85054">
        <ele>1146.246</ele>
        <time>2012-05-21T10:45:41Z</time>
      </trkpt>
      <trkpt lat="44.5655" lon="3.85093">
        <ele>1145.072</ele>
        <time>2012-05-21T10:46:04Z</time>
      </trkpt>
      <trkpt lat="44.56552" lon="3.85096">
        <ele>1144.899</ele>
        <time>2012-05-21T10:46:07Z</time>
      </trkpt>
      <trkpt lat="44.56559" lon="3.85126">
        <ele>1144.395</ele>
        <time>2012-05-21T10:46:24Z</time>
      </trkpt>
      <trkpt lat="44.56561" lon="3.85139">
        <ele>1144.468</ele>
        <time>2012-05-21T10:46:31Z</time>
      </trkpt>
      <trkpt lat="44.56564" lon="3.85158">
        <ele>1144.137</ele>
        <time>2012-05-21T10:46:42Z</time>
      </trkpt>
      <trkpt lat="44.56569" lon="3.8519">
        <ele>1144.024</ele>
        <time>2012-05-21T10:47:00Z</time>
      </trkpt>
      <trkpt lat="44.56572" lon="3.85231">
        <ele>1142.558</ele>
        <time>2012-05-21T10:47:22Z</time>
      </trkpt>
      <trkpt lat="44.56572" lon="3.85249">
        <ele>1141.689</ele>
        <time>2012-05-21T10:47:33Z</time>
      </trkpt>
      <trkpt lat="44.56569" lon="3.8527">
        <ele>1140.805</ele>
        <time>2012-05-21T10:47:48Z</time>
      </trkpt>
      <trkpt lat="44.56568" lon="3.85279">
        <ele>1140.59</ele>
        <time>2012-05-21T10:48:02Z</time>
      </trkpt>
      <trkpt lat="44.56566" lon="3.85306">
        <ele>1138.774</ele>
        <time>2012-05-21T10:51:09Z</time>
      </trkpt>
      <trkpt lat="44.56566" lon="3.85311">
        <ele>1138.634</ele>
        <time>2012-05-21T10:51:55Z</time>
      </trkpt>
      <trkpt lat="44.56561" lon="3.85312">
        <ele>1137.823</ele>
        <time>2012-05-21T10:53:14Z</time>
      </trkpt>
      <trkpt lat="44.56556" lon="3.8531">
        <ele>1137.505</ele>
        <time>2012-05-21T10:53:30Z</time>
      </trkpt>
      <trkpt lat="44.56553" lon="3.85309">
        <ele>1136.964</ele>
        <time>2012-05-21T10:57:03Z</time>
      </trkpt>
      <trkpt lat="44.56549" lon="3.85304">
        <ele>1135.708</ele>
        <time>2012-05-21T11:24:26Z</time>
      </trkpt>
      <trkpt lat="44.56545" lon="3.85298">
        <ele>1136.528</ele>
        <time>2012-05-21T11:33:03Z</time>
      </trkpt>
      <trkpt lat="44.56542" lon="3.85285">
        <ele>1136.226</ele>
        <time>2012-05-21T11:33:12Z</time>
      </trkpt>
      <trkpt lat="44.56539" lon="3.8524">
        <ele>1133.472</ele>
        <time>2012-05-21T11:33:43Z</time>
      </trkpt>
      <trkpt lat="44.56535" lon="3.85211">
        <ele>1132.447</ele>
        <time>2012-05-21T11:34:05Z</time>
      </trkpt>
      <trkpt lat="44.56524" lon="3.85172">
        <ele>1129.619</ele>
        <time>2012-05-21T11:34:34Z</time>
      </trkpt>
      <trkpt lat="44.56513" lon="3.85152">
        <ele>1128.677</ele>
        <time>2012-05-21T11:34:50Z</time>
      </trkpt>
      <trkpt lat="44.56504" lon="3.85129">
        <ele>1127.46</ele>
        <time>2012-05-21T11:35:07Z</time>
      </trkpt>
      <trkpt lat="44.56494" lon="3.8511">
        <ele>1126.657</ele>
        <time>2012-05-21T11:35:21Z</time>
      </trkpt>
      <trkpt lat="44.56465" lon="3.85083">
        <ele>1123.121</ele>
        <time>2012-05-21T11:35:52Z</time>
      </trkpt>
      <trkpt lat="44.564" lon="3.8505">
        <ele>1122.5</ele>
        <time>2012-05-21T11:36:30Z</time>
      </trkpt>
      <trkpt lat="44.5633" lon="3.8503">
        <ele>1122</ele>
        <time>2012-05-21T11:38:00Z</time>
      </trkpt>
      <trkpt lat="44.5628" lon="3.8496">
        <ele>1125</ele>
        <time>2012-05-21T11:40:00Z</time>
      </trkpt>
      <trkpt lat="44.56238" lon="3.8495">
        <ele>1129.076</ele>
        <time>2012-05-21T11:40:54Z</time>
      </trkpt>
      <trkpt lat="44.56234" lon="3.84947">
        <ele>1129.222</ele>
        <time>2012-05-21T11:40:58Z</time>
      </trkpt>
      <trkpt lat="44.5623" lon="3.84946">
        <ele>1128.85</ele>
        <time>2012-05-21T11:41:01Z</time>
      </trkpt>
      <trkpt lat="44.56224" lon="3.84945">
        <ele>1129.118</ele>
        <time>2012-05-21T11:41:05Z</time>
      </trkpt>
      <trkpt lat="44.5622" lon="3.84946">
        <ele>1128.763</ele>
        <time>2012-05-21T11:41:08Z</time>
      </trkpt>
      <trkpt lat="44.56205" lon="3.84942">
        <ele>1127.387</ele>
        <time>2012-05-21T11:41:21Z</time>
      </trkpt>
      <trkpt lat="44.56204" lon="3.84941">
        <ele>1127.389</ele>
        <time>2012-05-21T11:41:22Z</time>
      </trkpt>
      <trkpt lat="44.56191" lon="3.84937">
        <ele>1126.558</ele>
        <time>2012-05-21T11:41:32Z</time>
      </trkpt>
      <trkpt lat="44.56186" lon="3.84933">
        <ele>1126.383</ele>
        <time>2012-05-21T11:41:37Z</time>
      </trkpt>
      <trkpt lat="44.56184" lon="3.84926">
        <ele>1126.833</ele>
        <time>2012-05-21T11:41:42Z</time>
      </trkpt>
      <trkpt lat="44.56181" lon="3.84925">
        <ele>1126.8</ele>
        <time>2012-05-21T11:41:44Z</time>
      </trkpt>
      <trkpt lat="44.56175" lon="3.84919">
        <ele>1126.807</ele>
        <time>2012-05-21T11:41:50Z</time>
      </trkpt>
      <trkpt lat="44.5617" lon="3.84913">
        <ele>1126.909</ele>
        <time>2012-05-21T11:41:56Z</time>
      </trkpt>
      <trkpt lat="44.56157" lon="3.84902">
        <ele>1128.414</ele>
        <time>2012-05-21T11:42:09Z</time>
      </trkpt>
      <trkpt lat="44.56138" lon="3.84886">
        <ele>1129.201</ele>
        <time>2012-05-21T11:42:27Z</time>
      </trkpt>
      <trkpt lat="44.56133" lon="3.84881">
        <ele>1129.003</ele>
        <time>2012-05-21T11:42:32Z</time>
      </trkpt>
      <trkpt lat="44.56119" lon="3.84868">
        <ele>1129.337</ele>
        <time>2012-05-21T11:42:46Z</time>
      </trkpt>
      <trkpt lat="44.561" lon="3.84856">
        <ele>1130.659</ele>
        <time>2012-05-21T11:43:04Z</time>
      </trkpt>
      <trkpt lat="44.56077" lon="3.84841">
        <ele>1132.138</ele>
        <time>2012-05-21T11:43:25Z</time>
      </trkpt>
      <trkpt lat="44.5607" lon="3.84836">
        <ele>1133.781</ele>
        <time>2012-05-21T11:43:33Z</time>
      </trkpt>
      <trkpt lat="44.5606" lon="3.84808">
        <ele>1135.179</ele>
        <time>2012-05-21T11:43:55Z</time>
      </trkpt>
      <trkpt lat="44.56048" lon="3.84779">
        <ele>1137.102</ele>
        <time>2012-05-21T11:44:21Z</time>
      </trkpt>
      <trkpt lat="44.56036" lon="3.84765">
        <ele>1138.672</ele>
        <time>2012-05-21T11:44:39Z</time>
      </trkpt>
      <trkpt lat="44.56032" lon="3.84762">
        <ele>1139.064</ele>
        <time>2012-05-21T11:44:43Z</time>
      </trkpt>
      <trkpt lat="44.56029" lon="3.8476">
        <ele>1139.323</ele>
        <time>2012-05-21T11:44:46Z</time>
      </trkpt>
      <trkpt lat="44.56012" lon="3.84746">
        <ele>1141.626</ele>
        <time>2012-05-21T11:45:04Z</time>
      </trkpt>
      <trkpt lat="44.56006" lon="3.84739">
        <ele>1142.694</ele>
        <time>2012-05-21T11:45:11Z</time>
      </trkpt>
      <trkpt lat="44.55981" lon="3.84722">
        <ele>1143.885</ele>
        <time>2012-05-21T11:45:35Z</time>
      </trkpt>
      <trkpt lat="44.55966" lon="3.84715">
        <ele>1144.865</ele>
        <time>2012-05-21T11:45:50Z</time>
      </trkpt>
      <trkpt lat="44.55955" lon="3.84709">
        <ele>1145.661</ele>
        <time>2012-05-21T11:46:01Z</time>
      </trkpt>
      <trkpt lat="44.55937" lon="3.84705">
        <ele>1147.099</ele>
        <time>2012-05-21T11:46:17Z</time>
      </trkpt>
      <trkpt lat="44.55921" lon="3.84702">
        <ele>1148.248</ele>
        <time>2012-05-21T11:46:32Z</time>
      </trkpt>
      <trkpt lat="44.55906" lon="3.84702">
        <ele>1149.704</ele>
        <time>2012-05-21T11:46:46Z</time>
      </trkpt>
      <trkpt lat="44.55896" lon="3.84703">
        <ele>1150.758</ele>
        <time>2012-05-21T11:46:57Z</time>
      </trkpt>
      <trkpt lat="44.55891" lon="3.847">
        <ele>1151.588</ele>
        <time>2012-05-21T11:47:06Z</time>
      </trkpt>
      <trkpt lat="44.55882" lon="3.84704">
        <ele>1152.385</ele>
        <time>2012-05-21T11:47:11Z</time>
      </trkpt>
      <trkpt lat="44.55877" lon="3.84703">
        <ele>1152.269</ele>
        <time>2012-05-21T11:47:15Z</time>
      </trkpt>
      <trkpt lat="44.55871" lon="3.84701">
        <ele>1153.033</ele>
        <time>2012-05-21T11:47:20Z</time>
      </trkpt>
      <trkpt lat="44.55867" lon="3.84704">
        <ele>1152.871</ele>
        <time>2012-05-21T11:47:24Z</time>
      </trkpt>
      <trkpt lat="44.55863" lon="3.84703">
        <ele>1152.927</ele>
        <time>2012-05-21T11:47:27Z</time>
      </trkpt>
      <trkpt lat="44.55843" lon="3.84697">
        <ele>1154.544</ele>
        <time>2012-05-21T11:47:46Z</time>
      </trkpt>
      <trkpt lat="44.5584" lon="3.84695">
        <ele>1154.891</ele>
        <time>2012-05-21T11:47:49Z</time>
      </trkpt>
      <trkpt lat="44.55839" lon="3.84695">
        <ele>1154.917</ele>
        <time>2012-05-21T11:47:51Z</time>
      </trkpt>
      <trkpt lat="44.55829" lon="3.84693">
        <ele>1156.028</ele>
        <time>2012-05-21T11:48:01Z</time>
      </trkpt>
      <trkpt lat="44.55821" lon="3.84689">
        <ele>1157.105</ele>
        <time>2012-05-21T11:48:10Z</time>
      </trkpt>
      <trkpt lat="44.55807" lon="3.84682">
        <ele>1158.995</ele>
        <time>2012-05-21T11:48:27Z</time>
      </trkpt>
      <trkpt lat="44.55789" lon="3.84666">
        <ele>1161.167</ele>
        <time>2012-05-21T11:48:46Z</time>
      </trkpt>
      <trkpt lat="44.55775" lon="3.84654">
        <ele>1162.905</ele>
        <time>2012-05-21T11:49:01Z</time>
      </trkpt>
      <trkpt lat="44.55767" lon="3.84646">
        <ele>1164.367</ele>
        <time>2012-05-21T11:49:10Z</time>
      </trkpt>
      <trkpt lat="44.55761" lon="3.84637">
        <ele>1165.428</ele>
        <time>2012-05-21T11:49:18Z</time>
      </trkpt>
      <trkpt lat="44.55745" lon="3.84613">
        <ele>1167.354</ele>
        <time>2012-05-21T11:49:38Z</time>
      </trkpt>
      <trkpt lat="44.55731" lon="3.84589">
        <ele>1168.151</ele>
        <time>2012-05-21T11:49:59Z</time>
      </trkpt>
      <trkpt lat="44.55719" lon="3.84567">
        <ele>1169.087</ele>
        <time>2012-05-21T11:50:17Z</time>
      </trkpt>
      <trkpt lat="44.55706" lon="3.8453">
        <ele>1167.676</ele>
        <time>2012-05-21T11:50:42Z</time>
      </trkpt>
      <trkpt lat="44.55701" lon="3.84487">
        <ele>1167.068</ele>
        <time>2012-05-21T11:51:07Z</time>
      </trkpt>
      <trkpt lat="44.55698" lon="3.84446">
        <ele>1166.526</ele>
        <time>2012-05-21T11:51:29Z</time>
      </trkpt>
      <trkpt lat="44.55697" lon="3.84412">
        <ele>1166.152</ele>
        <time>2012-05-21T11:51:51Z</time>
      </trkpt>
      <trkpt lat="44.55697" lon="3.84388">
        <ele>1165.835</ele>
        <time>2012-05-21T11:52:05Z</time>
      </trkpt>
      <trkpt lat="44.55692" lon="3.84343">
        <ele>1166.766</ele>
        <time>2012-05-21T11:52:32Z</time>
      </trkpt>
      <trkpt lat="44.55686" lon="3.8431">
        <ele>1166.587</ele>
        <time>2012-05-21T11:52:54Z</time>
      </trkpt>
      <trkpt lat="44.55683" lon="3.84294">
        <ele>1166.907</ele>
        <time>2012-05-21T11:53:04Z</time>
      </trkpt>
      <trkpt lat="44.55682" lon="3.8429">
        <ele>1166.649</ele>
        <time>2012-05-21T11:53:06Z</time>
      </trkpt>
      <trkpt lat="44.55675" lon="3.84255">
        <ele>1167.008</ele>
        <time>2012-05-21T11:53:28Z</time>
      </trkpt>
      <trkpt lat="44.55668" lon="3.84211">
        <ele>1167.817</ele>
        <time>2012-05-21T11:53:57Z</time>
      </trkpt>
      <trkpt lat="44.55665" lon="3.84182">
        <ele>1168.188</ele>
        <time>2012-05-21T11:54:15Z</time>
      </trkpt>
      <trkpt lat="44.55665" lon="3.84146">
        <ele>1169.627</ele>
        <time>2012-05-21T11:54:38Z</time>
      </trkpt>
      <trkpt lat="44.55665" lon="3.84117">
        <ele>1170.533</ele>
        <time>2012-05-21T11:54:56Z</time>
      </trkpt>
      <trkpt lat="44.55665" lon="3.84113">
        <ele>1170.994</ele>
        <time>2012-05-21T11:54:59Z</time>
      </trkpt>
      <trkpt lat="44.55665" lon="3.8411">
        <ele>1171.295</ele>
        <time>2012-05-21T11:55:01Z</time>
      </trkpt>
      <trkpt lat="44.55668" lon="3.84082">
        <ele>1171.975</ele>
        <time>2012-05-21T11:55:19Z</time>
      </trkpt>
      <trkpt lat="44.55668" lon="3.84052">
        <ele>1172.682</ele>
        <time>2012-05-21T11:55:38Z</time>
      </trkpt>
      <trkpt lat="44.55666" lon="3.84016">
        <ele>1173.542</ele>
        <time>2012-05-21T11:56:00Z</time>
      </trkpt>
      <trkpt lat="44.55662" lon="3.8399">
        <ele>1173.104</ele>
        <time>2012-05-21T11:56:16Z</time>
      </trkpt>
      <trkpt lat="44.55661" lon="3.83985">
        <ele>1172.902</ele>
        <time>2012-05-21T11:56:19Z</time>
      </trkpt>
      <trkpt lat="44.55655" lon="3.83958">
        <ele>1172.572</ele>
        <time>2012-05-21T11:56:35Z</time>
      </trkpt>
      <trkpt lat="44.55642" lon="3.83918">
        <ele>1172.294</ele>
        <time>2012-05-21T11:57:01Z</time>
      </trkpt>
      <trkpt lat="44.55629" lon="3.8389">
        <ele>1172.81</ele>
        <time>2012-05-21T11:57:20Z</time>
      </trkpt>
      <trkpt lat="44.55619" lon="3.83862">
        <ele>1172.744</ele>
        <time>2012-05-21T11:57:39Z</time>
      </trkpt>
      <trkpt lat="44.55615" lon="3.83827">
        <ele>1172.521</ele>
        <time>2012-05-21T11:57:59Z</time>
      </trkpt>
      <trkpt lat="44.55613" lon="3.83815">
        <ele>1172.205</ele>
        <time>2012-05-21T11:58:06Z</time>
      </trkpt>
      <trkpt lat="44.55611" lon="3.83803">
        <ele>1173.176</ele>
        <time>2012-05-21T11:58:13Z</time>
      </trkpt>
      <trkpt lat="44.55611" lon="3.83792">
        <ele>1172.078</ele>
        <time>2012-05-21T11:58:20Z</time>
      </trkpt>
      <trkpt lat="44.55609" lon="3.83789">
        <ele>1172.191</ele>
        <time>2012-05-21T11:58:23Z</time>
      </trkpt>
      <trkpt lat="44.55601" lon="3.83788">
        <ele>1171.598</ele>
        <time>2012-05-21T11:58:35Z</time>
      </trkpt>
      <trkpt lat="44.55595" lon="3.83796">
        <ele>1171.654</ele>
        <time>2012-05-21T11:58:42Z</time>
      </trkpt>
      <trkpt lat="44.55588" lon="3.83805">
        <ele>1171.84</ele>
        <time>2012-05-21T11:58:49Z</time>
      </trkpt>
      <trkpt lat="44.55573" lon="3.8382">
        <ele>1171.186</ele>
        <time>2012-05-21T11:59:03Z</time>
      </trkpt>
      <trkpt lat="44.55556" lon="3.83839">
        <ele>1171.135</ele>
        <time>2012-05-21T11:59:21Z</time>
      </trkpt>
      <trkpt lat="44.55536" lon="3.83862">
        <ele>1170.538</ele>
        <time>2012-05-21T11:59:44Z</time>
      </trkpt>
      <trkpt lat="44.55533" lon="3.83866">
        <ele>1170.252</ele>
        <time>2012-05-21T11:59:48Z</time>
      </trkpt>
      <trkpt lat="44.55502" lon="3.83893">
        <ele>1169.671</ele>
        <time>2012-05-21T12:00:19Z</time>
      </trkpt>
      <trkpt lat="44.55478" lon="3.83914">
        <ele>1169.748</ele>
        <time>2012-05-21T12:00:44Z</time>
      </trkpt>
      <trkpt lat="44.55457" lon="3.83931">
        <ele>1170.424</ele>
        <time>2012-05-21T12:01:06Z</time>
      </trkpt>
      <trkpt lat="44.55455" lon="3.83932">
        <ele>1170.74</ele>
        <time>2012-05-21T12:01:08Z</time>
      </trkpt>
      <trkpt lat="44.55444" lon="3.83921">
        <ele>1170.841</ele>
        <time>2012-05-21T12:01:22Z</time>
      </trkpt>
      <trkpt lat="44.55443" lon="3.83918">
        <ele>1171.06</ele>
        <time>2012-05-21T12:01:24Z</time>
      </trkpt>
      <trkpt lat="44.55427" lon="3.83877">
        <ele>1171.21</ele>
        <time>2012-05-21T12:01:53Z</time>
      </trkpt>
      <trkpt lat="44.55412" lon="3.8384">
        <ele>1170.877</ele>
        <time>2012-05-21T12:02:19Z</time>
      </trkpt>
      <trkpt lat="44.55396" lon="3.838">
        <ele>1170.544</ele>
        <time>2012-05-21T12:02:47Z</time>
      </trkpt>
      <trkpt lat="44.55382" lon="3.83766">
        <ele>1171.148</ele>
        <time>2012-05-21T12:03:11Z</time>
      </trkpt>
      <trkpt lat="44.5537" lon="3.83737">
        <ele>1170.961</ele>
        <time>2012-05-21T12:03:33Z</time>
      </trkpt>
      <trkpt lat="44.55354" lon="3.83705">
        <ele>1170.359</ele>
        <time>2012-05-21T12:03:56Z</time>
      </trkpt>
      <trkpt lat="44.55344" lon="3.83679">
        <ele>1169.777</ele>
        <time>2012-05-21T12:04:14Z</time>
      </trkpt>
      <trkpt lat="44.55331" lon="3.83644">
        <ele>1169.786</ele>
        <time>2012-05-21T12:04:36Z</time>
      </trkpt>
      <trkpt lat="44.55328" lon="3.83631">
        <ele>1169.474</ele>
        <time>2012-05-21T12:04:43Z</time>
      </trkpt>
      <trkpt lat="44.55321" lon="3.83606">
        <ele>1169.005</ele>
        <time>2012-05-21T12:04:59Z</time>
      </trkpt>
      <trkpt lat="44.55312" lon="3.83587">
        <ele>1168.537</ele>
        <time>2012-05-21T12:05:12Z</time>
      </trkpt>
      <trkpt lat="44.55297" lon="3.83554">
        <ele>1167.272</ele>
        <time>2012-05-21T12:05:36Z</time>
      </trkpt>
      <trkpt lat="44.55294" lon="3.83552">
        <ele>1167.122</ele>
        <time>2012-05-21T12:05:38Z</time>
      </trkpt>
      <trkpt lat="44.55286" lon="3.83538">
        <ele>1167.127</ele>
        <time>2012-05-21T12:05:48Z</time>
      </trkpt>
      <trkpt lat="44.55278" lon="3.83524">
        <ele>1166.288</ele>
        <time>2012-05-21T12:05:59Z</time>
      </trkpt>
      <trkpt lat="44.55251" lon="3.835">
        <ele>1165.942</ele>
        <time>2012-05-21T12:06:25Z</time>
      </trkpt>
      <trkpt lat="44.55223" lon="3.8349">
        <ele>1164.734</ele>
        <time>2012-05-21T12:06:48Z</time>
      </trkpt>
      <trkpt lat="44.55197" lon="3.83467">
        <ele>1162.911</ele>
        <time>2012-05-21T12:07:14Z</time>
      </trkpt>
      <trkpt lat="44.55184" lon="3.83417">
        <ele>1161.846</ele>
        <time>2012-05-21T12:07:44Z</time>
      </trkpt>
      <trkpt lat="44.55185" lon="3.83378">
        <ele>1160.948</ele>
        <time>2012-05-21T12:08:07Z</time>
      </trkpt>
      <trkpt lat="44.5518" lon="3.8334">
        <ele>1161.444</ele>
        <time>2012-05-21T12:08:30Z</time>
      </trkpt>
      <trkpt lat="44.55166" lon="3.83307">
        <ele>1163.572</ele>
        <time>2012-05-21T12:08:54Z</time>
      </trkpt>
      <trkpt lat="44.55141" lon="3.83283">
        <ele>1162.854</ele>
        <time>2012-05-21T12:09:19Z</time>
      </trkpt>
      <trkpt lat="44.55112" lon="3.83271">
        <ele>1163.685</ele>
        <time>2012-05-21T12:09:44Z</time>
      </trkpt>
      <trkpt lat="44.55087" lon="3.83267">
        <ele>1163.617</ele>
        <time>2012-05-21T12:10:05Z</time>
      </trkpt>
      <trkpt lat="44.55056" lon="3.83259">
        <ele>1164.011</ele>
        <time>2012-05-21T12:10:30Z</time>
      </trkpt>
      <trkpt lat="44.55033" lon="3.83245">
        <ele>1164.62</ele>
        <time>2012-05-21T12:10:52Z</time>
      </trkpt>
      <trkpt lat="44.55011" lon="3.83219">
        <ele>1164.941</ele>
        <time>2012-05-21T12:11:16Z</time>
      </trkpt>
      <trkpt lat="44.54994" lon="3.83179">
        <ele>1166.689</ele>
        <time>2012-05-21T12:11:43Z</time>
      </trkpt>
      <trkpt lat="44.54989" lon="3.83133">
        <ele>1167.039</ele>
        <time>2012-05-21T12:12:11Z</time>
      </trkpt>
      <trkpt lat="44.5499" lon="3.83124">
        <ele>1167.028</ele>
        <time>2012-05-21T12:12:30Z</time>
      </trkpt>
      <trkpt lat="44.54992" lon="3.83117">
        <ele>1167.517</ele>
        <time>2012-05-21T12:12:48Z</time>
      </trkpt>
      <trkpt lat="44.55" lon="3.83112">
        <ele>1167.818</ele>
        <time>2012-05-21T12:13:08Z</time>
      </trkpt>
      <trkpt lat="44.55003" lon="3.8311">
        <ele>1169.028</ele>
        <time>2012-05-21T12:18:26Z</time>
      </trkpt>
      <trkpt lat="44.55007" lon="3.83113">
        <ele>1169.275</ele>
        <time>2012-05-21T12:21:05Z</time>
      </trkpt>
    </trkseg>
  </trk>
</gpx>